<?xml version='1.0' encoding='UTF-8'?><gpx version="1.1" creator="JPX - https://github.com/jenetics/jpx" xmlns="http://www.topografix.com/GPX/1/1"><trk><trkseg><trkpt lat="49.15736621479076" lon="6.059233712301809"><ele>311.7142857142857</ele><time>2026-04-19T11:27:06Z</time></trkpt><trkpt lat="49.15738919159841" lon="6.059140028876441"><ele>312.42857142857144</ele><time>2026-04-19T11:27:08Z</time></trkpt><trkpt lat="49.1574230917643" lon="6.059039379828839"><ele>313.14285714285717</ele><time>2026-04-19T11:27:10Z</time></trkpt><trkpt lat="49.15745420324253" lon="6.058932779445553"><ele>313.8571428571429</ele><time>2026-04-19T11:27:12Z</time></trkpt><trkpt lat="49.15749324331205" lon="6.058833278391493"><ele>314.57142857142856</ele><time>2026-04-19T11:27:14Z</time></trkpt><trkpt lat="49.15753145197142" lon="6.058726939819066"><ele>315.28571428571433</ele><time>2026-04-19T11:27:16Z</time></trkpt><trkpt lat="49.157585082920775" lon="6.0586410437791045"><ele>316.0</ele><time>2026-04-19T11:27:18Z</time></trkpt><trkpt lat="49.15764285403889" lon="6.058566375246848"><ele>316.0</ele><time>2026-04-19T11:27:20Z</time></trkpt><trkpt lat="49.157702097881725" lon="6.058507718833706"><ele>316.0</ele><time>2026-04-19T11:27:22Z</time></trkpt><trkpt lat="49.15776976717715" lon="6.058448444606114"><ele>316.0</ele><time>2026-04-19T11:27:24Z</time></trkpt><trkpt lat="49.15786008220016" lon="6.058404110698391"><ele>316.0</ele><time>2026-04-19T11:27:27Z</time></trkpt><trkpt lat="49.157930417776285" lon="6.0583708211324705"><ele>316.0</ele><time>2026-04-19T11:27:29Z</time></trkpt><trkpt lat="49.1580194383429" lon="6.058357761916375"><ele>316.0</ele><time>2026-04-19T11:27:32Z</time></trkpt><trkpt lat="49.15809896951657" lon="6.058347975039486"><ele>316.0</ele><time>2026-04-19T11:27:35Z</time></trkpt><trkpt lat="49.15818357480092" lon="6.058333349343056"><ele>316.0</ele><time>2026-04-19T11:27:38Z</time></trkpt><trkpt lat="49.158280033697544" lon="6.058324846449163"><ele>316.0</ele><time>2026-04-19T11:27:41Z</time></trkpt><trkpt lat="49.15834654426754" lon="6.058329241553661"><ele>316.0</ele><time>2026-04-19T11:27:43Z</time></trkpt><trkpt lat="49.158411808882924" lon="6.05834379946943"><ele>316.0</ele><time>2026-04-19T11:27:45Z</time></trkpt><trkpt lat="49.15849071150686" lon="6.058370017934324"><ele>316.0</ele><time>2026-04-19T11:27:47Z</time></trkpt><trkpt lat="49.15855957100757" lon="6.058401301960076"><ele>316.5714285714286</ele><time>2026-04-19T11:27:49Z</time></trkpt><trkpt lat="49.158627487008275" lon="6.058409679252584"><ele>317.14285714285717</ele><time>2026-04-19T11:27:51Z</time></trkpt><trkpt lat="49.15869959722696" lon="6.058440939208027"><ele>317.7142857142857</ele><time>2026-04-19T11:27:53Z</time></trkpt><trkpt lat="49.15876858119587" lon="6.058465240050583"><ele>318.28571428571433</ele><time>2026-04-19T11:27:55Z</time></trkpt><trkpt lat="49.158831685723165" lon="6.0584981622728975"><ele>318.8571428571429</ele><time>2026-04-19T11:27:57Z</time></trkpt><trkpt lat="49.15891535834454" lon="6.05851457543841"><ele>319.42857142857144</ele><time>2026-04-19T11:27:59Z</time></trkpt><trkpt lat="49.15899373416649" lon="6.058533932536445"><ele>320.0</ele><time>2026-04-19T11:28:01Z</time></trkpt><trkpt lat="49.15909166766362" lon="6.058556131009132"><ele>318.33333333333337</ele><time>2026-04-19T11:28:04Z</time></trkpt><trkpt lat="49.15918887903193" lon="6.0585784622980166"><ele>316.6666666666667</ele><time>2026-04-19T11:28:07Z</time></trkpt><trkpt lat="49.15925558831371" lon="6.058574875991409"><ele>315.0</ele><time>2026-04-19T11:28:09Z</time></trkpt><trkpt lat="49.1593301156972" lon="6.05857281036929"><ele>313.3333333333333</ele><time>2026-04-19T11:28:12Z</time></trkpt><trkpt lat="49.15940143351839" lon="6.0585843637466"><ele>311.66666666666663</ele><time>2026-04-19T11:28:14Z</time></trkpt><trkpt lat="49.15946929766125" lon="6.058600683498775"><ele>310.0</ele><time>2026-04-19T11:28:16Z</time></trkpt><trkpt lat="49.15953797094284" lon="6.058636077445754"><ele>310.0</ele><time>2026-04-19T11:28:18Z</time></trkpt><trkpt lat="49.159609968189216" lon="6.058670867284997"><ele>310.0</ele><time>2026-04-19T11:28:20Z</time></trkpt><trkpt lat="49.15968628802032" lon="6.05871875819674"><ele>310.0</ele><time>2026-04-19T11:28:22Z</time></trkpt><trkpt lat="49.15976689209108" lon="6.058764338970034"><ele>310.0</ele><time>2026-04-19T11:28:24Z</time></trkpt><trkpt lat="49.15983223878889" lon="6.058820593956337"><ele>310.0</ele><time>2026-04-19T11:28:26Z</time></trkpt><trkpt lat="49.159907328790396" lon="6.05889435993436"><ele>310.0</ele><time>2026-04-19T11:28:28Z</time></trkpt><trkpt lat="49.15997140023347" lon="6.058936050893329"><ele>310.66666666666663</ele><time>2026-04-19T11:28:30Z</time></trkpt><trkpt lat="49.16004191042352" lon="6.058997866937824"><ele>311.3333333333333</ele><time>2026-04-19T11:28:32Z</time></trkpt><trkpt lat="49.16011099601876" lon="6.059047680311228"><ele>312.0</ele><time>2026-04-19T11:28:34Z</time></trkpt><trkpt lat="49.160186010151314" lon="6.059069006915679"><ele>312.6666666666667</ele><time>2026-04-19T11:28:36Z</time></trkpt><trkpt lat="49.16025960301411" lon="6.059096820499571"><ele>313.33333333333337</ele><time>2026-04-19T11:28:38Z</time></trkpt><trkpt lat="49.160343878661116" lon="6.059121978358821"><ele>314.0</ele><time>2026-04-19T11:28:41Z</time></trkpt><trkpt lat="49.16043157372795" lon="6.059160021119186"><ele>314.0</ele><time>2026-04-19T11:28:44Z</time></trkpt><trkpt lat="49.160493910393775" lon="6.059190027161093"><ele>314.0</ele><time>2026-04-19T11:28:46Z</time></trkpt><trkpt lat="49.16058194461765" lon="6.059217219920191"><ele>314.0</ele><time>2026-04-19T11:28:49Z</time></trkpt><trkpt lat="49.160662703253195" lon="6.059228844280167"><ele>314.0</ele><time>2026-04-19T11:28:51Z</time></trkpt><trkpt lat="49.16077112398384" lon="6.0592394138907055"><ele>314.0</ele><time>2026-04-19T11:28:53Z</time></trkpt><trkpt lat="49.16083808961955" lon="6.059232210234703"><ele>314.0</ele><time>2026-04-19T11:28:54Z</time></trkpt><trkpt lat="49.160939977922325" lon="6.059271263596199"><ele>311.2</ele><time>2026-04-19T11:28:55Z</time></trkpt><trkpt lat="49.16102113978721" lon="6.059244381245711"><ele>308.4</ele><time>2026-04-19T11:28:57Z</time></trkpt><trkpt lat="49.16110841903852" lon="6.059192976589701"><ele>305.6</ele><time>2026-04-19T11:28:59Z</time></trkpt><trkpt lat="49.16117252130535" lon="6.059113867982284"><ele>302.8</ele><time>2026-04-19T11:29:01Z</time></trkpt><trkpt lat="49.161243221602305" lon="6.059015910319167"><ele>300.0</ele><time>2026-04-19T11:29:03Z</time></trkpt><trkpt lat="49.16127712827412" lon="6.058876359140691"><ele>299.8</ele><time>2026-04-19T11:29:05Z</time></trkpt><trkpt lat="49.161327191623826" lon="6.058765961960972"><ele>299.6</ele><time>2026-04-19T11:29:07Z</time></trkpt><trkpt lat="49.16138251101289" lon="6.058645569147307"><ele>299.4</ele><time>2026-04-19T11:29:09Z</time></trkpt><trkpt lat="49.1614189261058" lon="6.058504457620679"><ele>299.2</ele><time>2026-04-19T11:29:11Z</time></trkpt><trkpt lat="49.16146183597846" lon="6.058386857287697"><ele>299.0</ele><time>2026-04-19T11:29:13Z</time></trkpt><trkpt lat="49.16150506960618" lon="6.058252297641525"><ele>299.0</ele><time>2026-04-19T11:29:15Z</time></trkpt><trkpt lat="49.1615318751996" lon="6.058119769972593"><ele>299.0</ele><time>2026-04-19T11:29:17Z</time></trkpt><trkpt lat="49.16155520276298" lon="6.058024985141036"><ele>299.0</ele><time>2026-04-19T11:29:19Z</time></trkpt><trkpt lat="49.16158069967765" lon="6.0578950670535425"><ele>299.0</ele><time>2026-04-19T11:29:21Z</time></trkpt><trkpt lat="49.161435967137194" lon="6.057656884398637"><ele>299.0</ele><time>2026-04-19T11:29:23Z</time></trkpt><trkpt lat="49.16147238629506" lon="6.057531579860682"><ele>299.0</ele><time>2026-04-19T11:29:25Z</time></trkpt><trkpt lat="49.16150250831743" lon="6.057427941719363"><ele>299.0</ele><time>2026-04-19T11:29:27Z</time></trkpt><trkpt lat="49.16153993861477" lon="6.057299115339011"><ele>299.0</ele><time>2026-04-19T11:29:30Z</time></trkpt><trkpt lat="49.161578216279636" lon="6.057164160703335"><ele>299.0</ele><time>2026-04-19T11:29:32Z</time></trkpt><trkpt lat="49.1616113993645" lon="6.057047167887736"><ele>299.0</ele><time>2026-04-19T11:29:34Z</time></trkpt><trkpt lat="49.16165504851836" lon="6.056893322220798"><ele>299.1666666666667</ele><time>2026-04-19T11:29:36Z</time></trkpt><trkpt lat="49.16170157381781" lon="6.056732446599462"><ele>299.33333333333337</ele><time>2026-04-19T11:29:38Z</time></trkpt><trkpt lat="49.16173557904412" lon="6.056619548501751"><ele>299.5</ele><time>2026-04-19T11:29:40Z</time></trkpt><trkpt lat="49.16177295914947" lon="6.056500211818052"><ele>299.6666666666667</ele><time>2026-04-19T11:29:42Z</time></trkpt><trkpt lat="49.16180574754481" lon="6.05640307780165"><ele>299.8333333333333</ele><time>2026-04-19T11:29:44Z</time></trkpt><trkpt lat="49.16185508618872" lon="6.056290713128167"><ele>300.0</ele><time>2026-04-19T11:29:46Z</time></trkpt><trkpt lat="49.16190576878316" lon="6.056197740154889"><ele>300.2</ele><time>2026-04-19T11:29:48Z</time></trkpt><trkpt lat="49.16201280707733" lon="6.056032886019074"><ele>300.4</ele><time>2026-04-19T11:29:50Z</time></trkpt><trkpt lat="49.16207995043036" lon="6.055955825694593"><ele>300.6</ele><time>2026-04-19T11:29:53Z</time></trkpt><trkpt lat="49.16215544531308" lon="6.055882232630915"><ele>300.8</ele><time>2026-04-19T11:29:56Z</time></trkpt><trkpt lat="49.162211574711435" lon="6.0558280061065535"><ele>301.0</ele><time>2026-04-19T11:29:59Z</time></trkpt><trkpt lat="49.162275185359064" lon="6.055770687737348"><ele>301.3333333333333</ele><time>2026-04-19T11:30:02Z</time></trkpt><trkpt lat="49.162337320780416" lon="6.055714699996934"><ele>301.66666666666663</ele><time>2026-04-19T11:30:04Z</time></trkpt><trkpt lat="49.16239535960657" lon="6.055662438410922"><ele>302.0</ele><time>2026-04-19T11:30:06Z</time></trkpt><trkpt lat="49.16246551747625" lon="6.055599276690907"><ele>302.3333333333333</ele><time>2026-04-19T11:30:08Z</time></trkpt><trkpt lat="49.16255036369715" lon="6.055522891463375"><ele>302.6666666666667</ele><time>2026-04-19T11:30:11Z</time></trkpt><trkpt lat="49.162637096037706" lon="6.0554448083238945"><ele>303.0</ele><time>2026-04-19T11:30:13Z</time></trkpt><trkpt lat="49.16272394551535" lon="6.05536661947013"><ele>303.0</ele><time>2026-04-19T11:30:15Z</time></trkpt><trkpt lat="49.16281634590411" lon="6.05528343355426"><ele>303.0</ele><time>2026-04-19T11:30:17Z</time></trkpt><trkpt lat="49.16288263272342" lon="6.055223756942807"><ele>303.0</ele><time>2026-04-19T11:30:19Z</time></trkpt><trkpt lat="49.16295060400485" lon="6.055162563653344"><ele>303.0</ele><time>2026-04-19T11:30:21Z</time></trkpt><trkpt lat="49.16301258499896" lon="6.055106763534864"><ele>303.0</ele><time>2026-04-19T11:30:23Z</time></trkpt><trkpt lat="49.16306703529793" lon="6.055057743013464"><ele>303.0</ele><time>2026-04-19T11:30:25Z</time></trkpt><trkpt lat="49.16313010927793" lon="6.055000958873061"><ele>303.3333333333333</ele><time>2026-04-19T11:30:27Z</time></trkpt><trkpt lat="49.163189924111606" lon="6.054946989334802"><ele>303.6666666666667</ele><time>2026-04-19T11:30:29Z</time></trkpt><trkpt lat="49.16325706195431" lon="6.054885966119305"><ele>304.0</ele><time>2026-04-19T11:30:31Z</time></trkpt><trkpt lat="49.16331129422374" lon="6.054836673064027"><ele>304.33333333333337</ele><time>2026-04-19T11:30:37Z</time></trkpt><trkpt lat="49.16337294390751" lon="6.054780638019275"><ele>304.6666666666667</ele><time>2026-04-19T11:30:41Z</time></trkpt><trkpt lat="49.16342885412712" lon="6.054729819962814"><ele>305.0</ele><time>2026-04-19T11:30:43Z</time></trkpt><trkpt lat="49.16351685366716" lon="6.0546501758221085"><ele>305.6</ele><time>2026-04-19T11:30:45Z</time></trkpt><trkpt lat="49.1635930908085" lon="6.0545812741607365"><ele>306.2</ele><time>2026-04-19T11:30:47Z</time></trkpt><trkpt lat="49.16366071904716" lon="6.05452383737656"><ele>306.8</ele><time>2026-04-19T11:30:49Z</time></trkpt><trkpt lat="49.1637222846772" lon="6.054473676473619"><ele>307.4</ele><time>2026-04-19T11:30:51Z</time></trkpt><trkpt lat="49.163818682320205" lon="6.054397415950596"><ele>308.0</ele><time>2026-04-19T11:30:53Z</time></trkpt><trkpt lat="49.16392814458096" lon="6.054329010566961"><ele>307.8</ele><time>2026-04-19T11:30:55Z</time></trkpt><trkpt lat="49.164030761050185" lon="6.054288571734218"><ele>307.6</ele><time>2026-04-19T11:30:57Z</time></trkpt><trkpt lat="49.16413689853375" lon="6.054258168857412"><ele>307.4</ele><time>2026-04-19T11:30:59Z</time></trkpt><trkpt lat="49.16421921877536" lon="6.054244174503999"><ele>307.2</ele><time>2026-04-19T11:31:01Z</time></trkpt><trkpt lat="49.16433134284262" lon="6.05422574644226"><ele>307.0</ele><time>2026-04-19T11:31:03Z</time></trkpt><trkpt lat="49.16442598910366" lon="6.054211069613893"><ele>307.0</ele><time>2026-04-19T11:31:05Z</time></trkpt><trkpt lat="49.164520992421444" lon="6.054188759372587"><ele>307.0</ele><time>2026-04-19T11:31:07Z</time></trkpt><trkpt lat="49.16461494715876" lon="6.054157400094307"><ele>307.0</ele><time>2026-04-19T11:31:10Z</time></trkpt><trkpt lat="49.16469217229964" lon="6.054118513616124"><ele>307.0</ele><time>2026-04-19T11:31:12Z</time></trkpt><trkpt lat="49.1647642853074" lon="6.054072894808996"><ele>307.0</ele><time>2026-04-19T11:31:14Z</time></trkpt><trkpt lat="49.16482797798117" lon="6.05401493395168"><ele>307.0</ele><time>2026-04-19T11:31:16Z</time></trkpt><trkpt lat="49.164923459493984" lon="6.053923544904677"><ele>307.0</ele><time>2026-04-19T11:31:18Z</time></trkpt><trkpt lat="49.165008028458935" lon="6.053836251973239"><ele>307.0</ele><time>2026-04-19T11:31:21Z</time></trkpt><trkpt lat="49.165088250339494" lon="6.053747337624291"><ele>307.0</ele><time>2026-04-19T11:31:24Z</time></trkpt><trkpt lat="49.16515193120918" lon="6.053674899471"><ele>307.0</ele><time>2026-04-19T11:31:26Z</time></trkpt><trkpt lat="49.165290733990766" lon="6.053767596553014"><ele>307.0</ele><time>2026-04-19T11:31:34.999Z</time></trkpt><trkpt lat="49.16524549840985" lon="6.053683515208007"><ele>307.0</ele><time>2026-04-19T11:31:41Z</time></trkpt><trkpt lat="49.16523464413895" lon="6.053573428476114"><ele>307.0</ele><time>2026-04-19T11:31:44Z</time></trkpt><trkpt lat="49.165317810977996" lon="6.0534364548833866"><ele>307.0</ele><time>2026-04-19T11:31:46Z</time></trkpt><trkpt lat="49.1653810842374" lon="6.053363020596089"><ele>307.0</ele><time>2026-04-19T11:31:47Z</time></trkpt><trkpt lat="49.165454016635394" lon="6.053275804433301"><ele>307.0</ele><time>2026-04-19T11:31:48Z</time></trkpt><trkpt lat="49.16553213016258" lon="6.053181629127118"><ele>307.25</ele><time>2026-04-19T11:31:49Z</time></trkpt><trkpt lat="49.165622251911856" lon="6.053072660371177"><ele>307.5</ele><time>2026-04-19T11:31:50Z</time></trkpt><trkpt lat="49.16572836240952" lon="6.0529482733855575"><ele>307.75</ele><time>2026-04-19T11:31:51Z</time></trkpt><trkpt lat="49.16584069200491" lon="6.052818567537147"><ele>308.0</ele><time>2026-04-19T11:31:52Z</time></trkpt><trkpt lat="49.16596587559126" lon="6.05267502248396"><ele>308.0</ele><time>2026-04-19T11:31:53Z</time></trkpt><trkpt lat="49.166100381344826" lon="6.052523958101933"><ele>308.0</ele><time>2026-04-19T11:31:54Z</time></trkpt><trkpt lat="49.16624348446432" lon="6.052355492701532"><ele>308.0</ele><time>2026-04-19T11:31:55Z</time></trkpt><trkpt lat="49.166397678986364" lon="6.052185633802053"><ele>308.0</ele><time>2026-04-19T11:31:56Z</time></trkpt><trkpt lat="49.166556308158434" lon="6.052011995424617"><ele>308.0</ele><time>2026-04-19T11:31:57Z</time></trkpt><trkpt lat="49.16670175295982" lon="6.051849426847542"><ele>308.0</ele><time>2026-04-19T11:31:58Z</time></trkpt><trkpt lat="49.1668072957171" lon="6.051723209001425"><ele>308.0</ele><time>2026-04-19T11:31:59Z</time></trkpt><trkpt lat="49.16687682669529" lon="6.051638102553958"><ele>308.0</ele><time>2026-04-19T11:32:00Z</time></trkpt><trkpt lat="49.16692551134043" lon="6.051571567398596"><ele>308.0</ele><time>2026-04-19T11:32:01Z</time></trkpt><trkpt lat="49.166987254117494" lon="6.051516622526706"><ele>308.0</ele><time>2026-04-19T11:32:03Z</time></trkpt><trkpt lat="49.16690576172133" lon="6.051315980816508"><ele>308.0</ele><time>2026-04-19T11:32:05Z</time></trkpt><trkpt lat="49.166865692498284" lon="6.051241203106195"><ele>308.0</ele><time>2026-04-19T11:32:06Z</time></trkpt><trkpt lat="49.16683565750652" lon="6.051139804190559"><ele>308.1666666666667</ele><time>2026-04-19T11:32:07Z</time></trkpt><trkpt lat="49.166799647159095" lon="6.05103339593936"><ele>308.33333333333337</ele><time>2026-04-19T11:32:08Z</time></trkpt><trkpt lat="49.16676135372981" lon="6.050920016043488"><ele>308.5</ele><time>2026-04-19T11:32:09Z</time></trkpt><trkpt lat="49.166720121368925" lon="6.050799242675191"><ele>308.6666666666667</ele><time>2026-04-19T11:32:10Z</time></trkpt><trkpt lat="49.166673522612314" lon="6.050682659300173"><ele>308.8333333333333</ele><time>2026-04-19T11:32:11Z</time></trkpt><trkpt lat="49.16662845281911" lon="6.050558211243629"><ele>309.0</ele><time>2026-04-19T11:32:12Z</time></trkpt><trkpt lat="49.166584467585324" lon="6.0504374002701065"><ele>310.0</ele><time>2026-04-19T11:32:13Z</time></trkpt><trkpt lat="49.16655299897997" lon="6.050312549766353"><ele>311.0</ele><time>2026-04-19T11:32:14Z</time></trkpt><trkpt lat="49.16649512562593" lon="6.050203982439562"><ele>312.0</ele><time>2026-04-19T11:32:15Z</time></trkpt><trkpt lat="49.166465961763144" lon="6.05007360457641"><ele>313.0</ele><time>2026-04-19T11:32:16Z</time></trkpt><trkpt lat="49.166433383927526" lon="6.049984167869151"><ele>314.0</ele><time>2026-04-19T11:32:17Z</time></trkpt><trkpt lat="49.16638847059839" lon="6.049860864864543"><ele>315.0</ele><time>2026-04-19T11:32:19Z</time></trkpt><trkpt lat="49.16650005160635" lon="6.049696376211892"><ele>315.0</ele><time>2026-04-19T11:32:23Z</time></trkpt><trkpt lat="49.16655888062219" lon="6.049623367990393"><ele>315.0</ele><time>2026-04-19T11:32:24Z</time></trkpt><trkpt lat="49.16662255474448" lon="6.0495471960595415"><ele>315.0</ele><time>2026-04-19T11:32:25Z</time></trkpt><trkpt lat="49.16669368629217" lon="6.049468552009286"><ele>315.0</ele><time>2026-04-19T11:32:26Z</time></trkpt><trkpt lat="49.166750080391914" lon="6.049405203905246"><ele>315.0</ele><time>2026-04-19T11:32:27Z</time></trkpt><trkpt lat="49.16682097475656" lon="6.049303981920653"><ele>315.0</ele><time>2026-04-19T11:32:29Z</time></trkpt><trkpt lat="49.166797290724816" lon="6.049183351369552"><ele>315.1666666666667</ele><time>2026-04-19T11:32:31Z</time></trkpt><trkpt lat="49.16672038992136" lon="6.049035979864111"><ele>315.3333333333333</ele><time>2026-04-19T11:32:33Z</time></trkpt><trkpt lat="49.16668064615957" lon="6.048956616021341"><ele>315.5</ele><time>2026-04-19T11:32:34Z</time></trkpt><trkpt lat="49.16663860634569" lon="6.048874616470789"><ele>315.66666666666663</ele><time>2026-04-19T11:32:35Z</time></trkpt><trkpt lat="49.166588857766335" lon="6.048785193484881"><ele>315.8333333333333</ele><time>2026-04-19T11:32:36Z</time></trkpt><trkpt lat="49.16654258903483" lon="6.048695516825483"><ele>316.0</ele><time>2026-04-19T11:32:37Z</time></trkpt><trkpt lat="49.16648869251655" lon="6.048592542907386"><ele>316.0</ele><time>2026-04-19T11:32:38Z</time></trkpt><trkpt lat="49.16643971984936" lon="6.0484965030259445"><ele>316.0</ele><time>2026-04-19T11:32:39Z</time></trkpt><trkpt lat="49.16637856244685" lon="6.0483878142485485"><ele>316.0</ele><time>2026-04-19T11:32:40Z</time></trkpt><trkpt lat="49.16632543424316" lon="6.048297555248635"><ele>316.0</ele><time>2026-04-19T11:32:41Z</time></trkpt><trkpt lat="49.16627810638242" lon="6.0482147683676954"><ele>316.0</ele><time>2026-04-19T11:32:42Z</time></trkpt><trkpt lat="49.166213222225615" lon="6.048101761575895"><ele>316.0</ele><time>2026-04-19T11:32:44Z</time></trkpt><trkpt lat="49.16619682075347" lon="6.047995746445968"><ele>316.3333333333333</ele><time>2026-04-19T11:32:47Z</time></trkpt><trkpt lat="49.16624665713279" lon="6.047852844323647"><ele>316.66666666666663</ele><time>2026-04-19T11:32:49Z</time></trkpt><trkpt lat="49.1662906895884" lon="6.047766551709873"><ele>317.0</ele><time>2026-04-19T11:32:50Z</time></trkpt><trkpt lat="49.16633812217661" lon="6.04766741180355"><ele>317.3333333333333</ele><time>2026-04-19T11:32:51Z</time></trkpt><trkpt lat="49.16638316765639" lon="6.047567287081992"><ele>317.6666666666667</ele><time>2026-04-19T11:32:52Z</time></trkpt><trkpt lat="49.16643206615322" lon="6.047457167634439"><ele>318.0</ele><time>2026-04-19T11:32:53Z</time></trkpt><trkpt lat="49.16648167887476" lon="6.0473431762388925"><ele>318.2</ele><time>2026-04-19T11:32:54Z</time></trkpt><trkpt lat="49.16653522872738" lon="6.047217949423238"><ele>318.4</ele><time>2026-04-19T11:32:55Z</time></trkpt><trkpt lat="49.1665883747481" lon="6.047085750383131"><ele>318.59999999999997</ele><time>2026-04-19T11:32:56Z</time></trkpt><trkpt lat="49.1666418704868" lon="6.046947061463411"><ele>318.8</ele><time>2026-04-19T11:32:57Z</time></trkpt><trkpt lat="49.16669398912595" lon="6.046822755010909"><ele>319.0</ele><time>2026-04-19T11:32:58Z</time></trkpt><trkpt lat="49.166733856325514" lon="6.046714151862995"><ele>319.0</ele><time>2026-04-19T11:32:59Z</time></trkpt><trkpt lat="49.166770000591214" lon="6.046606762076896"><ele>319.0</ele><time>2026-04-19T11:33:00Z</time></trkpt><trkpt lat="49.16680982774155" lon="6.046498673764845"><ele>319.0</ele><time>2026-04-19T11:33:01Z</time></trkpt><trkpt lat="49.166858934289685" lon="6.046397582046913"><ele>319.0</ele><time>2026-04-19T11:33:02Z</time></trkpt><trkpt lat="49.16691355265512" lon="6.046289470777336"><ele>319.0</ele><time>2026-04-19T11:33:03Z</time></trkpt><trkpt lat="49.16698063283454" lon="6.046155076426226"><ele>319.0</ele><time>2026-04-19T11:33:04Z</time></trkpt><trkpt lat="49.16703363754734" lon="6.046043198823374"><ele>319.0</ele><time>2026-04-19T11:33:05Z</time></trkpt><trkpt lat="49.167082962107614" lon="6.045940020708297"><ele>319.0</ele><time>2026-04-19T11:33:06Z</time></trkpt><trkpt lat="49.16712692569876" lon="6.045853415497865"><ele>319.0</ele><time>2026-04-19T11:33:07Z</time></trkpt><trkpt lat="49.16716957687616" lon="6.0457702595211495"><ele>319.0</ele><time>2026-04-19T11:33:08Z</time></trkpt><trkpt lat="49.16720596879856" lon="6.045689882526572"><ele>319.0</ele><time>2026-04-19T11:33:09Z</time></trkpt><trkpt lat="49.167280366514404" lon="6.045584262100839"><ele>319.0</ele><time>2026-04-19T11:33:11Z</time></trkpt><trkpt lat="49.1671119389143" lon="6.045465988643548"><ele>319.16666666666663</ele><time>2026-04-19T11:33:13Z</time></trkpt><trkpt lat="49.16705886882334" lon="6.045400518306459"><ele>319.3333333333333</ele><time>2026-04-19T11:33:14Z</time></trkpt><trkpt lat="49.16701459192766" lon="6.045328714525475"><ele>319.5</ele><time>2026-04-19T11:33:15Z</time></trkpt><trkpt lat="49.16696055353206" lon="6.045252789556334"><ele>319.6666666666667</ele><time>2026-04-19T11:33:16Z</time></trkpt><trkpt lat="49.16690518451778" lon="6.0451664975206425"><ele>319.83333333333337</ele><time>2026-04-19T11:33:17Z</time></trkpt><trkpt lat="49.166845652610704" lon="6.045072502957414"><ele>320.0</ele><time>2026-04-19T11:33:18Z</time></trkpt><trkpt lat="49.166789579013255" lon="6.044980701313182"><ele>320.1666666666667</ele><time>2026-04-19T11:33:19Z</time></trkpt><trkpt lat="49.16674478212916" lon="6.044890768835389"><ele>320.33333333333337</ele><time>2026-04-19T11:33:20Z</time></trkpt><trkpt lat="49.166704981377386" lon="6.04479262436298"><ele>320.5</ele><time>2026-04-19T11:33:21Z</time></trkpt><trkpt lat="49.16666343060698" lon="6.044680454026048"><ele>320.6666666666667</ele><time>2026-04-19T11:33:22Z</time></trkpt><trkpt lat="49.1666230404783" lon="6.044564158485374"><ele>320.8333333333333</ele><time>2026-04-19T11:33:23Z</time></trkpt><trkpt lat="49.166583970750274" lon="6.044434240711992"><ele>321.0</ele><time>2026-04-19T11:33:24Z</time></trkpt><trkpt lat="49.16654618477785" lon="6.044306043284391"><ele>320.6</ele><time>2026-04-19T11:33:25Z</time></trkpt><trkpt lat="49.16651082945147" lon="6.044170588883452"><ele>320.20000000000005</ele><time>2026-04-19T11:33:26Z</time></trkpt><trkpt lat="49.166469765999715" lon="6.044041033209292"><ele>319.79999999999995</ele><time>2026-04-19T11:33:27Z</time></trkpt><trkpt lat="49.1664298266904" lon="6.04391810314314"><ele>319.4</ele><time>2026-04-19T11:33:28Z</time></trkpt><trkpt lat="49.16638974025422" lon="6.043798131643675"><ele>319.0</ele><time>2026-04-19T11:33:29Z</time></trkpt><trkpt lat="49.166345426923854" lon="6.0436738597814585"><ele>319.0</ele><time>2026-04-19T11:33:30Z</time></trkpt><trkpt lat="49.16630912510744" lon="6.0435460464133355"><ele>319.0</ele><time>2026-04-19T11:33:31Z</time></trkpt><trkpt lat="49.166275553605566" lon="6.043436420099036"><ele>319.0</ele><time>2026-04-19T11:33:32Z</time></trkpt><trkpt lat="49.16624583389904" lon="6.043339506077311"><ele>319.0</ele><time>2026-04-19T11:33:33Z</time></trkpt><trkpt lat="49.16621618991332" lon="6.043241368415191"><ele>319.0</ele><time>2026-04-19T11:33:34Z</time></trkpt><trkpt lat="49.16618647334277" lon="6.043141322663075"><ele>319.0</ele><time>2026-04-19T11:33:35Z</time></trkpt><trkpt lat="49.16615617449685" lon="6.043040000872713"><ele>318.8571428571429</ele><time>2026-04-19T11:33:36Z</time></trkpt><trkpt lat="49.16612685979078" lon="6.0429536386825236"><ele>318.71428571428567</ele><time>2026-04-19T11:33:37Z</time></trkpt><trkpt lat="49.16609954746969" lon="6.042862033861492"><ele>318.57142857142856</ele><time>2026-04-19T11:33:38Z</time></trkpt><trkpt lat="49.166073774143754" lon="6.042761651717665"><ele>318.42857142857144</ele><time>2026-04-19T11:33:38.999Z</time></trkpt><trkpt lat="49.16604104330445" lon="6.042653762936406"><ele>318.28571428571433</ele><time>2026-04-19T11:33:39.999Z</time></trkpt><trkpt lat="49.16600747196868" lon="6.042544566396111"><ele>318.1428571428571</ele><time>2026-04-19T11:33:40.999Z</time></trkpt><trkpt lat="49.16596966052425" lon="6.042440272734535"><ele>318.0</ele><time>2026-04-19T11:33:41.999Z</time></trkpt><trkpt lat="49.165935891009624" lon="6.042321952412899"><ele>318.3333333333333</ele><time>2026-04-19T11:33:43Z</time></trkpt><trkpt lat="49.16589998052484" lon="6.042204396818977"><ele>318.6666666666667</ele><time>2026-04-19T11:33:44Z</time></trkpt><trkpt lat="49.165862361671905" lon="6.04208662489866"><ele>319.0</ele><time>2026-04-19T11:33:45Z</time></trkpt><trkpt lat="49.165824247692804" lon="6.041967651449407"><ele>319.33333333333337</ele><time>2026-04-19T11:33:46Z</time></trkpt><trkpt lat="49.16578128883227" lon="6.041834461744745"><ele>319.6666666666667</ele><time>2026-04-19T11:33:47Z</time></trkpt><trkpt lat="49.16575908317677" lon="6.041714414875823"><ele>320.0</ele><time>2026-04-19T11:33:48Z</time></trkpt><trkpt lat="49.1657323495731" lon="6.0416225153667185"><ele>320.0</ele><time>2026-04-19T11:33:49Z</time></trkpt><trkpt lat="49.16569974124821" lon="6.041508246231805"><ele>320.0</ele><time>2026-04-19T11:33:50Z</time></trkpt><trkpt lat="49.1656665341249" lon="6.041388724945861"><ele>320.0</ele><time>2026-04-19T11:33:51Z</time></trkpt><trkpt lat="49.16563245759324" lon="6.041266103497521"><ele>320.0</ele><time>2026-04-19T11:33:52Z</time></trkpt><trkpt lat="49.165595736879645" lon="6.041135362768112"><ele>320.0</ele><time>2026-04-19T11:33:53Z</time></trkpt><trkpt lat="49.16556479033472" lon="6.04102518052135"><ele>320.0</ele><time>2026-04-19T11:33:54Z</time></trkpt><trkpt lat="49.16553074784772" lon="6.04090397535512"><ele>320.1666666666667</ele><time>2026-04-19T11:33:55Z</time></trkpt><trkpt lat="49.16549636300991" lon="6.040781551478572"><ele>320.33333333333337</ele><time>2026-04-19T11:33:56Z</time></trkpt><trkpt lat="49.165468329891645" lon="6.040681742202604"><ele>320.5</ele><time>2026-04-19T11:33:57Z</time></trkpt><trkpt lat="49.16543322674356" lon="6.040549860647192"><ele>320.6666666666667</ele><time>2026-04-19T11:33:59Z</time></trkpt><trkpt lat="49.16544514503252" lon="6.040441651127509"><ele>320.8333333333333</ele><time>2026-04-19T11:34:01Z</time></trkpt><trkpt lat="49.16549586746469" lon="6.040381192939895"><ele>321.0</ele><time>2026-04-19T11:34:02Z</time></trkpt><trkpt lat="49.16556138510343" lon="6.040354148119994"><ele>321.0</ele><time>2026-04-19T11:34:03Z</time></trkpt><trkpt lat="49.165633457040734" lon="6.0403624311398225"><ele>321.0</ele><time>2026-04-19T11:34:04Z</time></trkpt><trkpt lat="49.165707555135675" lon="6.040395995153706"><ele>321.0</ele><time>2026-04-19T11:34:05Z</time></trkpt><trkpt lat="49.16579466661488" lon="6.0404131378397095"><ele>321.0</ele><time>2026-04-19T11:34:06Z</time></trkpt><trkpt lat="49.16588489252444" lon="6.0404136501637815"><ele>321.0</ele><time>2026-04-19T11:34:07Z</time></trkpt><trkpt lat="49.16598050726513" lon="6.040419264147069"><ele>321.0</ele><time>2026-04-19T11:34:08Z</time></trkpt><trkpt lat="49.1660769324038" lon="6.040429494933176"><ele>321.0</ele><time>2026-04-19T11:34:09Z</time></trkpt><trkpt lat="49.16617939334809" lon="6.040437222063401"><ele>321.0</ele><time>2026-04-19T11:34:10Z</time></trkpt><trkpt lat="49.16626565826387" lon="6.040447857199428"><ele>321.0</ele><time>2026-04-19T11:34:11Z</time></trkpt><trkpt lat="49.16633638053016" lon="6.040462147390982"><ele>321.0</ele><time>2026-04-19T11:34:12Z</time></trkpt><trkpt lat="49.16640030049735" lon="6.040482866793534"><ele>321.0</ele><time>2026-04-19T11:34:13Z</time></trkpt><trkpt lat="49.166462126082" lon="6.0405026001620765"><ele>321.0</ele><time>2026-04-19T11:34:14Z</time></trkpt><trkpt lat="49.166554456266184" lon="6.040562102757866"><ele>321.3333333333333</ele><time>2026-04-19T11:34:16Z</time></trkpt><trkpt lat="49.16662062695035" lon="6.040487196211349"><ele>321.6666666666667</ele><time>2026-04-19T11:34:17Z</time></trkpt><trkpt lat="49.16668083644452" lon="6.040442567873706"><ele>322.0</ele><time>2026-04-19T11:34:18Z</time></trkpt><trkpt lat="49.16679482775404" lon="6.040351412275759"><ele>322.33333333333337</ele><time>2026-04-19T11:34:20Z</time></trkpt><trkpt lat="49.16685788080851" lon="6.040289873235803"><ele>322.6666666666667</ele><time>2026-04-19T11:34:21Z</time></trkpt><trkpt lat="49.16692558128095" lon="6.040227396607254"><ele>323.0</ele><time>2026-04-19T11:34:22Z</time></trkpt><trkpt lat="49.166997586973324" lon="6.040167232333013"><ele>323.0</ele><time>2026-04-19T11:34:23Z</time></trkpt><trkpt lat="49.16707597132903" lon="6.040104630463518"><ele>323.0</ele><time>2026-04-19T11:34:24Z</time></trkpt><trkpt lat="49.16715309956457" lon="6.040039058186774"><ele>323.0</ele><time>2026-04-19T11:34:25Z</time></trkpt><trkpt lat="49.16722489230451" lon="6.039973876379402"><ele>323.0</ele><time>2026-04-19T11:34:26Z</time></trkpt><trkpt lat="49.16730034403717" lon="6.039911545942283"><ele>323.0</ele><time>2026-04-19T11:34:27Z</time></trkpt><trkpt lat="49.167378081300264" lon="6.03984507699849"><ele>323.0</ele><time>2026-04-19T11:34:28Z</time></trkpt><trkpt lat="49.16745446427255" lon="6.039777013336431"><ele>322.2</ele><time>2026-04-19T11:34:29Z</time></trkpt><trkpt lat="49.16752787365289" lon="6.039711401520834"><ele>321.4</ele><time>2026-04-19T11:34:30Z</time></trkpt><trkpt lat="49.167603599703455" lon="6.039642153592363"><ele>320.59999999999997</ele><time>2026-04-19T11:34:31Z</time></trkpt><trkpt lat="49.16768628372072" lon="6.039571594819731"><ele>319.79999999999995</ele><time>2026-04-19T11:34:32Z</time></trkpt><trkpt lat="49.16777785903705" lon="6.039497619029256"><ele>319.0</ele><time>2026-04-19T11:34:33Z</time></trkpt><trkpt lat="49.16787195105808" lon="6.039420676420403"><ele>319.0</ele><time>2026-04-19T11:34:34Z</time></trkpt><trkpt lat="49.16793847065046" lon="6.039361847415783"><ele>319.0</ele><time>2026-04-19T11:34:35Z</time></trkpt><trkpt lat="49.16799388418994" lon="6.0393152653912905"><ele>319.0</ele><time>2026-04-19T11:34:36Z</time></trkpt><trkpt lat="49.16808453394429" lon="6.039239672364565"><ele>319.0</ele><time>2026-04-19T11:34:38Z</time></trkpt><trkpt lat="49.1681378079632" lon="6.039185170943526"><ele>319.0</ele><time>2026-04-19T11:34:39Z</time></trkpt><trkpt lat="49.16819621659311" lon="6.039082581792355"><ele>319.0</ele><time>2026-04-19T11:34:40Z</time></trkpt><trkpt lat="49.16830470375227" lon="6.039036331858097"><ele>318.5</ele><time>2026-04-19T11:34:41Z</time></trkpt><trkpt lat="49.16840153580997" lon="6.038887878448194"><ele>318.0</ele><time>2026-04-19T11:34:42Z</time></trkpt><trkpt lat="49.16851920621698" lon="6.038762378376268"><ele>317.5</ele><time>2026-04-19T11:34:43Z</time></trkpt><trkpt lat="49.16860806774578" lon="6.038644659561808"><ele>317.0</ele><time>2026-04-19T11:34:44Z</time></trkpt><trkpt lat="49.16868229981838" lon="6.0385576980787"><ele>317.0</ele><time>2026-04-19T11:34:45Z</time></trkpt><trkpt lat="49.1687414041694" lon="6.038490154997653"><ele>317.0</ele><time>2026-04-19T11:34:46Z</time></trkpt><trkpt lat="49.16879094956854" lon="6.038430297609356"><ele>317.0</ele><time>2026-04-19T11:34:47Z</time></trkpt><trkpt lat="49.16885715627449" lon="6.038337756398654"><ele>317.0</ele><time>2026-04-19T11:34:49Z</time></trkpt><trkpt lat="49.16891779921109" lon="6.03829335056941"><ele>317.0</ele><time>2026-04-19T11:34:51Z</time></trkpt><trkpt lat="49.16897440585395" lon="6.038223734472025"><ele>317.0</ele><time>2026-04-19T11:34:55Z</time></trkpt><trkpt lat="49.16903667897032" lon="6.038147149302719"><ele>317.0</ele><time>2026-04-19T11:34:59Z</time></trkpt><trkpt lat="49.169115736023976" lon="6.038046190713633"><ele>316.6</ele><time>2026-04-19T11:35:01Z</time></trkpt><trkpt lat="49.16921953735583" lon="6.037913295541523"><ele>316.2</ele><time>2026-04-19T11:35:03Z</time></trkpt><trkpt lat="49.16927095795043" lon="6.037814465924291"><ele>315.8</ele><time>2026-04-19T11:35:04Z</time></trkpt><trkpt lat="49.169336362657354" lon="6.037734576393221"><ele>315.4</ele><time>2026-04-19T11:35:05Z</time></trkpt><trkpt lat="49.16940530655337" lon="6.03764676490261"><ele>315.0</ele><time>2026-04-19T11:35:06Z</time></trkpt><trkpt lat="49.16948679361758" lon="6.03754796412292"><ele>315.25</ele><time>2026-04-19T11:35:07Z</time></trkpt><trkpt lat="49.169564700989326" lon="6.037454943136654"><ele>315.5</ele><time>2026-04-19T11:35:08Z</time></trkpt><trkpt lat="49.16964664897135" lon="6.037348046223483"><ele>315.75</ele><time>2026-04-19T11:35:09Z</time></trkpt><trkpt lat="49.16973204619211" lon="6.037230075335913"><ele>316.0</ele><time>2026-04-19T11:35:10Z</time></trkpt><trkpt lat="49.16981191768563" lon="6.037075722002937"><ele>316.0</ele><time>2026-04-19T11:35:11Z</time></trkpt><trkpt lat="49.16984696663262" lon="6.036873242639587"><ele>316.0</ele><time>2026-04-19T11:35:12Z</time></trkpt><trkpt lat="49.16992792214083" lon="6.036651546258677"><ele>316.0</ele><time>2026-04-19T11:35:13Z</time></trkpt><trkpt lat="49.17015074243764" lon="6.036577316046172"><ele>315.25</ele><time>2026-04-19T11:35:14Z</time></trkpt><trkpt lat="49.170248121064866" lon="6.0364196316924374"><ele>314.5</ele><time>2026-04-19T11:35:15Z</time></trkpt><trkpt lat="49.17032895100072" lon="6.0362809557219474"><ele>313.75</ele><time>2026-04-19T11:35:16Z</time></trkpt><trkpt lat="49.17040668455713" lon="6.036140132208922"><ele>313.0</ele><time>2026-04-19T11:35:17Z</time></trkpt><trkpt lat="49.170483483832314" lon="6.035984210929571"><ele>313.0</ele><time>2026-04-19T11:35:18Z</time></trkpt><trkpt lat="49.1705475738076" lon="6.035837477558648"><ele>313.0</ele><time>2026-04-19T11:35:19Z</time></trkpt><trkpt lat="49.17060525953313" lon="6.035681723929732"><ele>313.0</ele><time>2026-04-19T11:35:20Z</time></trkpt><trkpt lat="49.17066569414139" lon="6.03552564960212"><ele>313.0</ele><time>2026-04-19T11:35:21Z</time></trkpt><trkpt lat="49.17073720806521" lon="6.03535358583339"><ele>313.6</ele><time>2026-04-19T11:35:22Z</time></trkpt><trkpt lat="49.17079917767971" lon="6.0352043042035435"><ele>314.20000000000005</ele><time>2026-04-19T11:35:23Z</time></trkpt><trkpt lat="49.170852465519815" lon="6.0350746122566905"><ele>314.8</ele><time>2026-04-19T11:35:24Z</time></trkpt><trkpt lat="49.170900105236534" lon="6.03495887305872"><ele>315.40000000000003</ele><time>2026-04-19T11:35:25Z</time></trkpt><trkpt lat="49.17094309673011" lon="6.0348550311055345"><ele>316.0</ele><time>2026-04-19T11:35:26Z</time></trkpt><trkpt lat="49.17099442094354" lon="6.034753179575887"><ele>316.2</ele><time>2026-04-19T11:35:27Z</time></trkpt><trkpt lat="49.171051433312186" lon="6.034662196829351"><ele>316.40000000000003</ele><time>2026-04-19T11:35:28Z</time></trkpt><trkpt lat="49.17114190636675" lon="6.03456049747756"><ele>316.6</ele><time>2026-04-19T11:35:30Z</time></trkpt><trkpt lat="49.17123338819247" lon="6.034494373152221"><ele>316.8</ele><time>2026-04-19T11:35:31.999Z</time></trkpt><trkpt lat="49.17132289657973" lon="6.034576066725867"><ele>317.0</ele><time>2026-04-19T11:35:33.999Z</time></trkpt><trkpt lat="49.171362047235576" lon="6.034663211547073"><ele>317.0</ele><time>2026-04-19T11:35:34.999Z</time></trkpt><trkpt lat="49.17140751399189" lon="6.034766213321586"><ele>317.0</ele><time>2026-04-19T11:35:35.999Z</time></trkpt><trkpt lat="49.1714632140758" lon="6.034879430394886"><ele>317.0</ele><time>2026-04-19T11:35:36.999Z</time></trkpt><trkpt lat="49.17152766580476" lon="6.034998798201431"><ele>317.0</ele><time>2026-04-19T11:35:37.999Z</time></trkpt><trkpt lat="49.171598122577" lon="6.035125172257224"><ele>317.0</ele><time>2026-04-19T11:35:38.999Z</time></trkpt><trkpt lat="49.17167207539658" lon="6.03525934561769"><ele>316.8</ele><time>2026-04-19T11:35:39.999Z</time></trkpt><trkpt lat="49.1717414256926" lon="6.035382017423452"><ele>316.6</ele><time>2026-04-19T11:35:40.999Z</time></trkpt><trkpt lat="49.1718056644895" lon="6.035475355880153"><ele>316.40000000000003</ele><time>2026-04-19T11:35:41.999Z</time></trkpt><trkpt lat="49.17187854482669" lon="6.035550457301035"><ele>316.2</ele><time>2026-04-19T11:35:42.999Z</time></trkpt><trkpt lat="49.17196694032685" lon="6.035610991400692"><ele>316.0</ele><time>2026-04-19T11:35:43.999Z</time></trkpt><trkpt lat="49.17206357594095" lon="6.035666664112378"><ele>316.0</ele><time>2026-04-19T11:35:44.999Z</time></trkpt><trkpt lat="49.17218104521038" lon="6.0357217037295525"><ele>316.0</ele><time>2026-04-19T11:35:45.999Z</time></trkpt><trkpt lat="49.172323767947425" lon="6.03578563264767"><ele>316.0</ele><time>2026-04-19T11:35:46.999Z</time></trkpt><trkpt lat="49.17248286751894" lon="6.035852887798955"><ele>316.0</ele><time>2026-04-19T11:35:47.999Z</time></trkpt><trkpt lat="49.17264534764181" lon="6.035922753393964"><ele>315.66666666666663</ele><time>2026-04-19T11:35:49Z</time></trkpt><trkpt lat="49.17281893092435" lon="6.035990147799698"><ele>315.3333333333333</ele><time>2026-04-19T11:35:50Z</time></trkpt><trkpt lat="49.17301581740358" lon="6.036070918816967"><ele>315.0</ele><time>2026-04-19T11:35:51Z</time></trkpt><trkpt lat="49.173213458201296" lon="6.036153676408632"><ele>315.0</ele><time>2026-04-19T11:35:52Z</time></trkpt><trkpt lat="49.17342603753419" lon="6.036233684115579"><ele>315.0</ele><time>2026-04-19T11:35:53Z</time></trkpt><trkpt lat="49.1736029290663" lon="6.036296475351384"><ele>315.0</ele><time>2026-04-19T11:35:54Z</time></trkpt><trkpt lat="49.1737571109272" lon="6.036363792291449"><ele>315.0</ele><time>2026-04-19T11:35:55Z</time></trkpt><trkpt lat="49.17390012398445" lon="6.036427743361525"><ele>315.0</ele><time>2026-04-19T11:35:56Z</time></trkpt><trkpt lat="49.174033686154715" lon="6.0364766708705355"><ele>315.0</ele><time>2026-04-19T11:35:57Z</time></trkpt><trkpt lat="49.174175467600264" lon="6.036537308812123"><ele>315.0</ele><time>2026-04-19T11:35:58Z</time></trkpt><trkpt lat="49.17431865953642" lon="6.036599001157071"><ele>314.75</ele><time>2026-04-19T11:35:59Z</time></trkpt><trkpt lat="49.17445316147163" lon="6.036661694120057"><ele>314.5</ele><time>2026-04-19T11:36:00Z</time></trkpt><trkpt lat="49.17460472669723" lon="6.036725593683069"><ele>314.25</ele><time>2026-04-19T11:36:01Z</time></trkpt><trkpt lat="49.17474460871674" lon="6.036795398806115"><ele>314.0</ele><time>2026-04-19T11:36:02Z</time></trkpt><trkpt lat="49.174867836313155" lon="6.036857140192292"><ele>314.0</ele><time>2026-04-19T11:36:03Z</time></trkpt><trkpt lat="49.174978939559416" lon="6.036915140366174"><ele>314.0</ele><time>2026-04-19T11:36:04Z</time></trkpt><trkpt lat="49.17508219461121" lon="6.036968544751092"><ele>314.0</ele><time>2026-04-19T11:36:05Z</time></trkpt><trkpt lat="49.1751929900382" lon="6.037025490394257"><ele>314.0</ele><time>2026-04-19T11:36:06Z</time></trkpt><trkpt lat="49.175304275276815" lon="6.037086301745726"><ele>314.0</ele><time>2026-04-19T11:36:07Z</time></trkpt><trkpt lat="49.17541501927347" lon="6.037155962219064"><ele>314.0</ele><time>2026-04-19T11:36:08Z</time></trkpt><trkpt lat="49.175525659745446" lon="6.037230048185709"><ele>314.0</ele><time>2026-04-19T11:36:09Z</time></trkpt><trkpt lat="49.1756415026598" lon="6.037308333492773"><ele>314.0</ele><time>2026-04-19T11:36:10Z</time></trkpt><trkpt lat="49.17574283682032" lon="6.037372577587354"><ele>314.0</ele><time>2026-04-19T11:36:11Z</time></trkpt><trkpt lat="49.175848814867976" lon="6.037429511598313"><ele>314.0</ele><time>2026-04-19T11:36:12Z</time></trkpt><trkpt lat="49.175955499408836" lon="6.037485281659061"><ele>314.0</ele><time>2026-04-19T11:36:13Z</time></trkpt><trkpt lat="49.17606501727022" lon="6.037541913496497"><ele>314.0</ele><time>2026-04-19T11:36:14Z</time></trkpt><trkpt lat="49.17617218191056" lon="6.037599538081995"><ele>314.0</ele><time>2026-04-19T11:36:15Z</time></trkpt><trkpt lat="49.17627603892649" lon="6.037659783434868"><ele>314.0</ele><time>2026-04-19T11:36:16Z</time></trkpt><trkpt lat="49.17637643135015" lon="6.037727044622693"><ele>314.0</ele><time>2026-04-19T11:36:17Z</time></trkpt><trkpt lat="49.17647866248659" lon="6.037796749084733"><ele>314.0</ele><time>2026-04-19T11:36:18Z</time></trkpt><trkpt lat="49.1765879913347" lon="6.037871819082667"><ele>313.4</ele><time>2026-04-19T11:36:19Z</time></trkpt><trkpt lat="49.176691932736865" lon="6.037948674943215"><ele>312.79999999999995</ele><time>2026-04-19T11:36:20Z</time></trkpt><trkpt lat="49.176783475145456" lon="6.038021827693412"><ele>312.20000000000005</ele><time>2026-04-19T11:36:21Z</time></trkpt><trkpt lat="49.17687360294343" lon="6.038103274276446"><ele>311.6</ele><time>2026-04-19T11:36:22Z</time></trkpt><trkpt lat="49.17696856905206" lon="6.038193174671543"><ele>311.0</ele><time>2026-04-19T11:36:23Z</time></trkpt><trkpt lat="49.177065594622796" lon="6.038285618507392"><ele>311.0</ele><time>2026-04-19T11:36:24Z</time></trkpt><trkpt lat="49.17715399263539" lon="6.038377010912367"><ele>311.0</ele><time>2026-04-19T11:36:25Z</time></trkpt><trkpt lat="49.17723590295776" lon="6.038472180520193"><ele>311.0</ele><time>2026-04-19T11:36:26Z</time></trkpt><trkpt lat="49.177315991007596" lon="6.038573435321617"><ele>311.0</ele><time>2026-04-19T11:36:27Z</time></trkpt><trkpt lat="49.177393276048235" lon="6.038677741448147"><ele>311.0</ele><time>2026-04-19T11:36:28Z</time></trkpt><trkpt lat="49.17747015681395" lon="6.038787318154936"><ele>311.0</ele><time>2026-04-19T11:36:29Z</time></trkpt><trkpt lat="49.17754049142404" lon="6.038902737195162"><ele>311.0</ele><time>2026-04-19T11:36:30Z</time></trkpt><trkpt lat="49.17761328611697" lon="6.039025331243193"><ele>311.0</ele><time>2026-04-19T11:36:31Z</time></trkpt><trkpt lat="49.17768485786409" lon="6.039158556491574"><ele>311.0</ele><time>2026-04-19T11:36:32Z</time></trkpt><trkpt lat="49.17776052848766" lon="6.039291065876928"><ele>311.0</ele><time>2026-04-19T11:36:33Z</time></trkpt><trkpt lat="49.177838955311515" lon="6.039430814130468"><ele>311.0</ele><time>2026-04-19T11:36:34Z</time></trkpt><trkpt lat="49.17791708852603" lon="6.03957135276253"><ele>311.0</ele><time>2026-04-19T11:36:35Z</time></trkpt><trkpt lat="49.177993221453626" lon="6.039706913937943"><ele>311.0</ele><time>2026-04-19T11:36:36Z</time></trkpt><trkpt lat="49.1780667888652" lon="6.039842837060039"><ele>311.0</ele><time>2026-04-19T11:36:37Z</time></trkpt><trkpt lat="49.17813879892131" lon="6.03997428589622"><ele>311.0</ele><time>2026-04-19T11:36:38Z</time></trkpt><trkpt lat="49.17819700813347" lon="6.040085421891755"><ele>311.0</ele><time>2026-04-19T11:36:39Z</time></trkpt><trkpt lat="49.17824304362212" lon="6.0401752565048055"><ele>311.0</ele><time>2026-04-19T11:36:40Z</time></trkpt><trkpt lat="49.17828262767789" lon="6.040254881217914"><ele>311.0</ele><time>2026-04-19T11:36:41Z</time></trkpt><trkpt lat="49.17834511141621" lon="6.040390137654565"><ele>311.0</ele><time>2026-04-19T11:36:43Z</time></trkpt><trkpt lat="49.17840828144426" lon="6.040507697775327"><ele>311.0</ele><time>2026-04-19T11:36:45Z</time></trkpt><trkpt lat="49.17845597100348" lon="6.040593992346803"><ele>311.0</ele><time>2026-04-19T11:36:47Z</time></trkpt><trkpt lat="49.17848959832041" lon="6.040692996609561"><ele>311.0</ele><time>2026-04-19T11:36:51Z</time></trkpt><trkpt lat="49.17854965215329" lon="6.040756846515856"><ele>311.0</ele><time>2026-04-19T11:36:56Z</time></trkpt><trkpt lat="49.178613744748255" lon="6.040854436162811"><ele>311.0</ele><time>2026-04-19T11:36:58Z</time></trkpt><trkpt lat="49.17867259093597" lon="6.040985628970687"><ele>311.0</ele><time>2026-04-19T11:37:00Z</time></trkpt><trkpt lat="49.178741101822936" lon="6.041116510813142"><ele>311.4285714285714</ele><time>2026-04-19T11:37:02Z</time></trkpt><trkpt lat="49.17878666597659" lon="6.041197384767832"><ele>311.8571428571429</ele><time>2026-04-19T11:37:03Z</time></trkpt><trkpt lat="49.17884192376595" lon="6.041294355488388"><ele>312.2857142857143</ele><time>2026-04-19T11:37:04Z</time></trkpt><trkpt lat="49.178891567947254" lon="6.041379690484058"><ele>312.71428571428567</ele><time>2026-04-19T11:37:05Z</time></trkpt><trkpt lat="49.17893091800434" lon="6.041459889656114"><ele>313.1428571428571</ele><time>2026-04-19T11:37:06Z</time></trkpt><trkpt lat="49.17896365920701" lon="6.041553160437146"><ele>313.57142857142856</ele><time>2026-04-19T11:37:07Z</time></trkpt><trkpt lat="49.17898787475704" lon="6.041657017732808"><ele>314.0</ele><time>2026-04-19T11:37:08Z</time></trkpt><trkpt lat="49.17898821504733" lon="6.0417579742278145"><ele>314.33333333333337</ele><time>2026-04-19T11:37:09Z</time></trkpt><trkpt lat="49.17896471035678" lon="6.041861999387907"><ele>314.6666666666667</ele><time>2026-04-19T11:37:10Z</time></trkpt><trkpt lat="49.178926484897175" lon="6.041944810657977"><ele>315.0</ele><time>2026-04-19T11:37:11Z</time></trkpt><trkpt lat="49.17886917707673" lon="6.042021020584669"><ele>315.3333333333333</ele><time>2026-04-19T11:37:12Z</time></trkpt><trkpt lat="49.1788051528356" lon="6.042071493190487"><ele>315.66666666666663</ele><time>2026-04-19T11:37:13Z</time></trkpt><trkpt lat="49.17872987399072" lon="6.042103887536582"><ele>316.0</ele><time>2026-04-19T11:37:14Z</time></trkpt><trkpt lat="49.17864552338053" lon="6.042144464760702"><ele>316.0</ele><time>2026-04-19T11:37:15Z</time></trkpt><trkpt lat="49.17856330754452" lon="6.042190319969716"><ele>316.0</ele><time>2026-04-19T11:37:16Z</time></trkpt><trkpt lat="49.17844121176647" lon="6.042271083741872"><ele>316.0</ele><time>2026-04-19T11:37:18Z</time></trkpt><trkpt lat="49.17837484153346" lon="6.042307665186182"><ele>316.0</ele><time>2026-04-19T11:37:19Z</time></trkpt><trkpt lat="49.17829932424662" lon="6.042350918117459"><ele>316.0</ele><time>2026-04-19T11:37:20Z</time></trkpt><trkpt lat="49.17823006010694" lon="6.042397584359291"><ele>316.0</ele><time>2026-04-19T11:37:21Z</time></trkpt><trkpt lat="49.178153642511965" lon="6.042450469019965"><ele>316.2</ele><time>2026-04-19T11:37:21.999Z</time></trkpt><trkpt lat="49.178073896897374" lon="6.042501660875045"><ele>316.40000000000003</ele><time>2026-04-19T11:37:22.999Z</time></trkpt><trkpt lat="49.177992331972426" lon="6.04254690656188"><ele>316.6</ele><time>2026-04-19T11:37:23.999Z</time></trkpt><trkpt lat="49.17791730747887" lon="6.042589413679245"><ele>316.8</ele><time>2026-04-19T11:37:24.999Z</time></trkpt><trkpt lat="49.17781001533313" lon="6.042653228191161"><ele>317.0</ele><time>2026-04-19T11:37:26.999Z</time></trkpt><trkpt lat="49.17772725807433" lon="6.042696033244383"><ele>317.0</ele><time>2026-04-19T11:37:28.999Z</time></trkpt><trkpt lat="49.17765681475729" lon="6.042752447770661"><ele>317.0</ele><time>2026-04-19T11:37:31.999Z</time></trkpt><trkpt lat="49.1776346801054" lon="6.042854036522588"><ele>317.0</ele><time>2026-04-19T11:37:34.999Z</time></trkpt><trkpt lat="49.17765455359472" lon="6.042998882489057"><ele>317.0</ele><time>2026-04-19T11:37:38.999Z</time></trkpt><trkpt lat="49.17767823784422" lon="6.043108297869708"><ele>317.0</ele><time>2026-04-19T11:37:40.999Z</time></trkpt><trkpt lat="49.17774636388573" lon="6.043158600992024"><ele>317.0</ele><time>2026-04-19T11:37:42.999Z</time></trkpt><trkpt lat="49.17787154484006" lon="6.043141484898436"><ele>317.0</ele><time>2026-04-19T11:37:44.999Z</time></trkpt><trkpt lat="49.17795317341805" lon="6.0431314080196215"><ele>317.0</ele><time>2026-04-19T11:37:45.999Z</time></trkpt><trkpt lat="49.17803973628808" lon="6.0431113870396755"><ele>317.0</ele><time>2026-04-19T11:37:46.999Z</time></trkpt><trkpt lat="49.17812851902312" lon="6.043083248741657"><ele>317.0</ele><time>2026-04-19T11:37:47.999Z</time></trkpt><trkpt lat="49.1782217636844" lon="6.043043100153398"><ele>317.0</ele><time>2026-04-19T11:37:48.999Z</time></trkpt><trkpt lat="49.178316069060756" lon="6.0429984000188"><ele>317.1666666666667</ele><time>2026-04-19T11:37:49.999Z</time></trkpt><trkpt lat="49.17840355109196" lon="6.042955461246338"><ele>317.33333333333337</ele><time>2026-04-19T11:37:50.999Z</time></trkpt><trkpt lat="49.178483456901446" lon="6.042920848015207"><ele>317.5</ele><time>2026-04-19T11:37:51.999Z</time></trkpt><trkpt lat="49.17855157893714" lon="6.042893783085415"><ele>317.6666666666667</ele><time>2026-04-19T11:37:52.999Z</time></trkpt><trkpt lat="49.17861415380696" lon="6.042874648736397"><ele>317.8333333333333</ele><time>2026-04-19T11:37:53.999Z</time></trkpt><trkpt lat="49.17870895027388" lon="6.0428776567599805"><ele>318.0</ele><time>2026-04-19T11:37:56Z</time></trkpt><trkpt lat="49.178782309869085" lon="6.043018718791645"><ele>318.0</ele><time>2026-04-19T11:37:58Z</time></trkpt><trkpt lat="49.1787987516965" lon="6.043116619200431"><ele>318.0</ele><time>2026-04-19T11:37:59Z</time></trkpt><trkpt lat="49.178802370332726" lon="6.043230359642794"><ele>318.0</ele><time>2026-04-19T11:38:00Z</time></trkpt><trkpt lat="49.17880901037162" lon="6.04334306621104"><ele>318.0</ele><time>2026-04-19T11:38:01Z</time></trkpt><trkpt lat="49.178817328921184" lon="6.043464164615483"><ele>318.0</ele><time>2026-04-19T11:38:02Z</time></trkpt><trkpt lat="49.17882491109877" lon="6.043586834078191"><ele>318.0</ele><time>2026-04-19T11:38:03Z</time></trkpt><trkpt lat="49.178827510415566" lon="6.043721035908281"><ele>317.75</ele><time>2026-04-19T11:38:04Z</time></trkpt><trkpt lat="49.1790167646438" lon="6.043867269341045"><ele>317.5</ele><time>2026-04-19T11:38:05Z</time></trkpt><trkpt lat="49.179014455162" lon="6.044010655034045"><ele>317.25</ele><time>2026-04-19T11:38:06Z</time></trkpt><trkpt lat="49.179013004487075" lon="6.044143952238689"><ele>317.0</ele><time>2026-04-19T11:38:07Z</time></trkpt><trkpt lat="49.179012016624135" lon="6.04428033536096"><ele>317.0</ele><time>2026-04-19T11:38:08Z</time></trkpt><trkpt lat="49.17901260854218" lon="6.044405793253341"><ele>317.0</ele><time>2026-04-19T11:38:09Z</time></trkpt><trkpt lat="49.17901338397682" lon="6.044530652366074"><ele>317.0</ele><time>2026-04-19T11:38:10Z</time></trkpt><trkpt lat="49.179015857619945" lon="6.044652816337958"><ele>317.0</ele><time>2026-04-19T11:38:11Z</time></trkpt><trkpt lat="49.17901799273447" lon="6.044758261792286"><ele>317.0</ele><time>2026-04-19T11:38:12Z</time></trkpt><trkpt lat="49.17902079359384" lon="6.0448588222035955"><ele>317.0</ele><time>2026-04-19T11:38:13Z</time></trkpt><trkpt lat="49.17902613113543" lon="6.045036186826705"><ele>317.1666666666667</ele><time>2026-04-19T11:38:15Z</time></trkpt><trkpt lat="49.17903397657504" lon="6.0452158027554725"><ele>317.33333333333337</ele><time>2026-04-19T11:38:17Z</time></trkpt><trkpt lat="49.17903894644423" lon="6.0453230432693665"><ele>317.5</ele><time>2026-04-19T11:38:18Z</time></trkpt><trkpt lat="49.179045569867625" lon="6.045445804196674"><ele>317.6666666666667</ele><time>2026-04-19T11:38:19Z</time></trkpt><trkpt lat="49.17905276704321" lon="6.045571059904344"><ele>317.8333333333333</ele><time>2026-04-19T11:38:20Z</time></trkpt><trkpt lat="49.17906228416724" lon="6.045710918267365"><ele>318.0</ele><time>2026-04-19T11:38:21Z</time></trkpt><trkpt lat="49.17907218320403" lon="6.045856389084887"><ele>318.0</ele><time>2026-04-19T11:38:22Z</time></trkpt><trkpt lat="49.17908159811086" lon="6.0459792320332415"><ele>318.0</ele><time>2026-04-19T11:38:23Z</time></trkpt><trkpt lat="49.179090932950054" lon="6.046100011762934"><ele>318.0</ele><time>2026-04-19T11:38:24Z</time></trkpt><trkpt lat="49.1791015169056" lon="6.04622760757375"><ele>318.0</ele><time>2026-04-19T11:38:25Z</time></trkpt><trkpt lat="49.179114457485895" lon="6.04637429934617"><ele>318.0</ele><time>2026-04-19T11:38:26Z</time></trkpt><trkpt lat="49.179126330957665" lon="6.046504813025325"><ele>318.0</ele><time>2026-04-19T11:38:27Z</time></trkpt><trkpt lat="49.179141548711684" lon="6.046659144256714"><ele>318.1666666666667</ele><time>2026-04-19T11:38:28Z</time></trkpt><trkpt lat="49.17915554943278" lon="6.046798283561689"><ele>318.3333333333333</ele><time>2026-04-19T11:38:29Z</time></trkpt><trkpt lat="49.1791694723105" lon="6.046928075049779"><ele>318.5</ele><time>2026-04-19T11:38:30Z</time></trkpt><trkpt lat="49.17918258855682" lon="6.047050346975843"><ele>318.66666666666663</ele><time>2026-04-19T11:38:31Z</time></trkpt><trkpt lat="49.179196672405865" lon="6.04718163899748"><ele>318.8333333333333</ele><time>2026-04-19T11:38:32Z</time></trkpt><trkpt lat="49.17921217272102" lon="6.047326135673653"><ele>319.0</ele><time>2026-04-19T11:38:33Z</time></trkpt><trkpt lat="49.17922929627899" lon="6.047485764422118"><ele>319.0</ele><time>2026-04-19T11:38:34Z</time></trkpt><trkpt lat="49.1792443929791" lon="6.047626498530261"><ele>319.0</ele><time>2026-04-19T11:38:35Z</time></trkpt><trkpt lat="49.17925704963789" lon="6.047744486060126"><ele>319.0</ele><time>2026-04-19T11:38:36Z</time></trkpt><trkpt lat="49.17926860150593" lon="6.047855382452554"><ele>319.0</ele><time>2026-04-19T11:38:37Z</time></trkpt><trkpt lat="49.17928011990649" lon="6.047968110781865"><ele>319.0</ele><time>2026-04-19T11:38:38Z</time></trkpt><trkpt lat="49.17929239723219" lon="6.048088266267137"><ele>319.0</ele><time>2026-04-19T11:38:39Z</time></trkpt><trkpt lat="49.179305175887215" lon="6.0482149199014685"><ele>318.59999999999997</ele><time>2026-04-19T11:38:40Z</time></trkpt><trkpt lat="49.17931720725912" lon="6.0483345402304485"><ele>318.2</ele><time>2026-04-19T11:38:41Z</time></trkpt><trkpt lat="49.17910870359332" lon="6.048497091447487"><ele>317.79999999999995</ele><time>2026-04-19T11:38:42Z</time></trkpt><trkpt lat="49.17911519195461" lon="6.0485998573906"><ele>317.4</ele><time>2026-04-19T11:38:43Z</time></trkpt><trkpt lat="49.17912619818869" lon="6.0486961867043085"><ele>317.0</ele><time>2026-04-19T11:38:44Z</time></trkpt><trkpt lat="49.17911656060238" lon="6.048850284515479"><ele>317.0</ele><time>2026-04-19T11:38:46Z</time></trkpt><trkpt lat="49.1790580535311" lon="6.04895637425546"><ele>317.0</ele><time>2026-04-19T11:38:48Z</time></trkpt><trkpt lat="49.17895016752806" lon="6.049000497965126"><ele>317.0</ele><time>2026-04-19T11:38:50Z</time></trkpt><trkpt lat="49.17886855483839" lon="6.049022787206032"><ele>317.0</ele><time>2026-04-19T11:38:51Z</time></trkpt><trkpt lat="49.17878220318728" lon="6.04905103436443"><ele>317.0</ele><time>2026-04-19T11:38:52Z</time></trkpt><trkpt lat="49.17867695665587" lon="6.049082288069966"><ele>316.75</ele><time>2026-04-19T11:38:53Z</time></trkpt><trkpt lat="49.178570222435305" lon="6.049117831309045"><ele>316.5</ele><time>2026-04-19T11:38:54Z</time></trkpt><trkpt lat="49.178453466600615" lon="6.049150798653654"><ele>316.25</ele><time>2026-04-19T11:38:55Z</time></trkpt><trkpt lat="49.17833174696455" lon="6.049184482724972"><ele>316.0</ele><time>2026-04-19T11:38:56Z</time></trkpt><trkpt lat="49.17821644860657" lon="6.049220566528494"><ele>315.8</ele><time>2026-04-19T11:38:57Z</time></trkpt><trkpt lat="49.17811243857653" lon="6.04924974352932"><ele>315.6</ele><time>2026-04-19T11:38:58Z</time></trkpt><trkpt lat="49.17801214726687" lon="6.049278396348246"><ele>315.4</ele><time>2026-04-19T11:38:59Z</time></trkpt><trkpt lat="49.17790062637715" lon="6.049309167927463"><ele>315.2</ele><time>2026-04-19T11:39:00Z</time></trkpt><trkpt lat="49.17779029440031" lon="6.049334324922731"><ele>315.0</ele><time>2026-04-19T11:39:01Z</time></trkpt><trkpt lat="49.17767417298443" lon="6.049354386829843"><ele>315.0</ele><time>2026-04-19T11:39:02Z</time></trkpt><trkpt lat="49.177555781647406" lon="6.0493784268889"><ele>315.0</ele><time>2026-04-19T11:39:03Z</time></trkpt><trkpt lat="49.17743652332375" lon="6.049400271535777"><ele>315.0</ele><time>2026-04-19T11:39:04Z</time></trkpt><trkpt lat="49.177316123658706" lon="6.049422550401688"><ele>315.0</ele><time>2026-04-19T11:39:05Z</time></trkpt><trkpt lat="49.17719860335245" lon="6.049442037776314"><ele>314.75</ele><time>2026-04-19T11:39:06Z</time></trkpt><trkpt lat="49.177079140983395" lon="6.0494552440452924"><ele>314.5</ele><time>2026-04-19T11:39:07Z</time></trkpt><trkpt lat="49.1769586922272" lon="6.0494609313825185"><ele>314.25</ele><time>2026-04-19T11:39:08Z</time></trkpt><trkpt lat="49.17683773046447" lon="6.049472454610304"><ele>314.0</ele><time>2026-04-19T11:39:09Z</time></trkpt><trkpt lat="49.176719110704965" lon="6.049486372323695"><ele>314.0</ele><time>2026-04-19T11:39:10Z</time></trkpt><trkpt lat="49.17659931753352" lon="6.049495697135953"><ele>314.0</ele><time>2026-04-19T11:39:11Z</time></trkpt><trkpt lat="49.17648398278948" lon="6.049500861914887"><ele>314.0</ele><time>2026-04-19T11:39:12Z</time></trkpt><trkpt lat="49.176371876455114" lon="6.049501010367184"><ele>314.0</ele><time>2026-04-19T11:39:13Z</time></trkpt><trkpt lat="49.17626744344218" lon="6.049503146503141"><ele>314.4</ele><time>2026-04-19T11:39:14Z</time></trkpt><trkpt lat="49.17616370235537" lon="6.049517642729733"><ele>314.79999999999995</ele><time>2026-04-19T11:39:15Z</time></trkpt><trkpt lat="49.176060529490286" lon="6.0495480786618065"><ele>315.20000000000005</ele><time>2026-04-19T11:39:16Z</time></trkpt><trkpt lat="49.175962557408006" lon="6.0496000842896125"><ele>315.6</ele><time>2026-04-19T11:39:17Z</time></trkpt><trkpt lat="49.175869314317964" lon="6.04967086951246"><ele>316.0</ele><time>2026-04-19T11:39:18Z</time></trkpt><trkpt lat="49.17577877561463" lon="6.049748834606484"><ele>316.0</ele><time>2026-04-19T11:39:19Z</time></trkpt><trkpt lat="49.17568733365321" lon="6.04983224692178"><ele>316.0</ele><time>2026-04-19T11:39:20Z</time></trkpt><trkpt lat="49.17559765350446" lon="6.0499124255039565"><ele>316.0</ele><time>2026-04-19T11:39:21Z</time></trkpt><trkpt lat="49.17551087842597" lon="6.049993572412697"><ele>316.0</ele><time>2026-04-19T11:39:21.999Z</time></trkpt><trkpt lat="49.175421982241474" lon="6.050070511065703"><ele>316.0</ele><time>2026-04-19T11:39:22.999Z</time></trkpt><trkpt lat="49.17532873442057" lon="6.0501517932908015"><ele>316.40000000000003</ele><time>2026-04-19T11:39:23.999Z</time></trkpt><trkpt lat="49.17523733616389" lon="6.05023856625879"><ele>316.8</ele><time>2026-04-19T11:39:24.999Z</time></trkpt><trkpt lat="49.175151885563714" lon="6.0503167481258755"><ele>317.20000000000005</ele><time>2026-04-19T11:39:25.999Z</time></trkpt><trkpt lat="49.17506495340345" lon="6.05039127902559"><ele>317.6</ele><time>2026-04-19T11:39:26.999Z</time></trkpt><trkpt lat="49.17498085047546" lon="6.05046209379809"><ele>318.0</ele><time>2026-04-19T11:39:27.999Z</time></trkpt><trkpt lat="49.17489257458817" lon="6.050536957251749"><ele>318.4</ele><time>2026-04-19T11:39:28.999Z</time></trkpt><trkpt lat="49.174807507851035" lon="6.050611888769373"><ele>318.8</ele><time>2026-04-19T11:39:29.999Z</time></trkpt><trkpt lat="49.17471615369021" lon="6.050689003672031"><ele>319.2</ele><time>2026-04-19T11:39:30.999Z</time></trkpt><trkpt lat="49.17463504716591" lon="6.050745539511109"><ele>319.6</ele><time>2026-04-19T11:39:31.999Z</time></trkpt><trkpt lat="49.17454860733993" lon="6.050805342227193"><ele>320.0</ele><time>2026-04-19T11:39:32.999Z</time></trkpt><trkpt lat="49.174466397460094" lon="6.050863432646539"><ele>320.2</ele><time>2026-04-19T11:39:33.999Z</time></trkpt><trkpt lat="49.17438414037118" lon="6.050913464513714"><ele>320.4</ele><time>2026-04-19T11:39:34.999Z</time></trkpt><trkpt lat="49.174291598231555" lon="6.0509536995614575"><ele>320.6</ele><time>2026-04-19T11:39:35.999Z</time></trkpt><trkpt lat="49.1742028633886" lon="6.050980298050687"><ele>320.8</ele><time>2026-04-19T11:39:36.999Z</time></trkpt><trkpt lat="49.17411050263659" lon="6.05100134174316"><ele>321.0</ele><time>2026-04-19T11:39:37.999Z</time></trkpt><trkpt lat="49.17401989903702" lon="6.051016695141395"><ele>321.0</ele><time>2026-04-19T11:39:38.999Z</time></trkpt><trkpt lat="49.17393432288057" lon="6.051021365835262"><ele>321.0</ele><time>2026-04-19T11:39:39.999Z</time></trkpt><trkpt lat="49.173844229331415" lon="6.051014934935554"><ele>321.0</ele><time>2026-04-19T11:39:40.999Z</time></trkpt><trkpt lat="49.17374909164137" lon="6.0510017109383405"><ele>321.0</ele><time>2026-04-19T11:39:41.999Z</time></trkpt><trkpt lat="49.17365980941156" lon="6.050990657705128"><ele>321.0</ele><time>2026-04-19T11:39:42.999Z</time></trkpt><trkpt lat="49.173566178981474" lon="6.050985222953244"><ele>321.0</ele><time>2026-04-19T11:39:43.999Z</time></trkpt><trkpt lat="49.17347914189984" lon="6.050978723436577"><ele>321.0</ele><time>2026-04-19T11:39:44.999Z</time></trkpt><trkpt lat="49.17338986918315" lon="6.050969560097569"><ele>321.0</ele><time>2026-04-19T11:39:45.999Z</time></trkpt><trkpt lat="49.173300491439946" lon="6.050956685016128"><ele>321.0</ele><time>2026-04-19T11:39:46.999Z</time></trkpt><trkpt lat="49.173225274292705" lon="6.0509707156059065"><ele>321.0</ele><time>2026-04-19T11:39:47.999Z</time></trkpt><trkpt lat="49.17315053928988" lon="6.050978575237279"><ele>321.0</ele><time>2026-04-19T11:39:48.999Z</time></trkpt><trkpt lat="49.17307565297154" lon="6.050997939752416"><ele>321.0</ele><time>2026-04-19T11:39:49.999Z</time></trkpt><trkpt lat="49.17300762297872" lon="6.051041439756617"><ele>321.0</ele><time>2026-04-19T11:39:50.999Z</time></trkpt><trkpt lat="49.17293001438148" lon="6.05109874216936"><ele>321.0</ele><time>2026-04-19T11:39:51.999Z</time></trkpt><trkpt lat="49.17285149872116" lon="6.051151466769388"><ele>321.0</ele><time>2026-04-19T11:39:52.999Z</time></trkpt><trkpt lat="49.17277657532686" lon="6.051220805138963"><ele>321.0</ele><time>2026-04-19T11:39:53.999Z</time></trkpt><trkpt lat="49.17270125882929" lon="6.051303323614096"><ele>321.0</ele><time>2026-04-19T11:39:54.999Z</time></trkpt><trkpt lat="49.17262632593452" lon="6.051362499481527"><ele>321.0</ele><time>2026-04-19T11:39:55.999Z</time></trkpt><trkpt lat="49.17255657125236" lon="6.051427235207027"><ele>321.0</ele><time>2026-04-19T11:39:56.999Z</time></trkpt><trkpt lat="49.172485111730154" lon="6.051493568746164"><ele>321.0</ele><time>2026-04-19T11:39:57.999Z</time></trkpt><trkpt lat="49.17239309471871" lon="6.051554234791433"><ele>321.0</ele><time>2026-04-19T11:39:58.999Z</time></trkpt><trkpt lat="49.172304654786096" lon="6.0516280234821505"><ele>321.0</ele><time>2026-04-19T11:39:59.999Z</time></trkpt><trkpt lat="49.172223539308504" lon="6.051714136467549"><ele>320.6</ele><time>2026-04-19T11:40:01Z</time></trkpt><trkpt lat="49.172144415740235" lon="6.051797642246961"><ele>320.20000000000005</ele><time>2026-04-19T11:40:02Z</time></trkpt><trkpt lat="49.1720580280398" lon="6.0518796034966265"><ele>319.79999999999995</ele><time>2026-04-19T11:40:03Z</time></trkpt><trkpt lat="49.171972045576226" lon="6.05195671120552"><ele>319.4</ele><time>2026-04-19T11:40:04Z</time></trkpt><trkpt lat="49.17189047133489" lon="6.052034365108126"><ele>319.0</ele><time>2026-04-19T11:40:05Z</time></trkpt><trkpt lat="49.17180456866363" lon="6.052109310215217"><ele>319.0</ele><time>2026-04-19T11:40:06Z</time></trkpt><trkpt lat="49.17171787533344" lon="6.052181714026706"><ele>319.0</ele><time>2026-04-19T11:40:07Z</time></trkpt><trkpt lat="49.17163369965592" lon="6.052251025004211"><ele>319.0</ele><time>2026-04-19T11:40:08Z</time></trkpt><trkpt lat="49.17155047908624" lon="6.052316744751365"><ele>319.0</ele><time>2026-04-19T11:40:09Z</time></trkpt><trkpt lat="49.17146950162322" lon="6.052386097964314"><ele>319.0</ele><time>2026-04-19T11:40:10Z</time></trkpt><trkpt lat="49.17138887813418" lon="6.052463679861616"><ele>319.6</ele><time>2026-04-19T11:40:11Z</time></trkpt><trkpt lat="49.17130099910551" lon="6.052539988448972"><ele>320.2</ele><time>2026-04-19T11:40:12Z</time></trkpt><trkpt lat="49.17120990061981" lon="6.052613951300828"><ele>320.8</ele><time>2026-04-19T11:40:13Z</time></trkpt><trkpt lat="49.17111806266501" lon="6.052700392454435"><ele>321.40000000000003</ele><time>2026-04-19T11:40:14Z</time></trkpt><trkpt lat="49.171044239699306" lon="6.052773655089016"><ele>322.0</ele><time>2026-04-19T11:40:15Z</time></trkpt><trkpt lat="49.17097631783932" lon="6.052841471894376"><ele>322.0</ele><time>2026-04-19T11:40:16Z</time></trkpt><trkpt lat="49.17090718490482" lon="6.052917770392307"><ele>322.0</ele><time>2026-04-19T11:40:17Z</time></trkpt><trkpt lat="49.17083797172711" lon="6.0529878800130446"><ele>322.0</ele><time>2026-04-19T11:40:18Z</time></trkpt><trkpt lat="49.17077201283919" lon="6.05305605207069"><ele>322.0</ele><time>2026-04-19T11:40:19Z</time></trkpt><trkpt lat="49.17069715597366" lon="6.053082427081797"><ele>322.0</ele><time>2026-04-19T11:40:20Z</time></trkpt><trkpt lat="49.17064021658269" lon="6.053148985138062"><ele>322.0</ele><time>2026-04-19T11:40:21Z</time></trkpt><trkpt lat="49.170594954399675" lon="6.053222702462652"><ele>321.8</ele><time>2026-04-19T11:40:22Z</time></trkpt><trkpt lat="49.17051489744499" lon="6.053321226027887"><ele>321.6</ele><time>2026-04-19T11:40:24Z</time></trkpt><trkpt lat="49.170447287559575" lon="6.053377423975422"><ele>321.40000000000003</ele><time>2026-04-19T11:40:26Z</time></trkpt><trkpt lat="49.17051589767988" lon="6.053537556227088"><ele>321.20000000000005</ele><time>2026-04-19T11:40:28Z</time></trkpt><trkpt lat="49.17059721614988" lon="6.05365523287951"><ele>321.0</ele><time>2026-04-19T11:40:30Z</time></trkpt><trkpt lat="49.170688586761905" lon="6.053789446226286"><ele>321.3333333333333</ele><time>2026-04-19T11:40:32Z</time></trkpt><trkpt lat="49.17074068396657" lon="6.0538659712941145"><ele>321.6666666666667</ele><time>2026-04-19T11:40:33Z</time></trkpt><trkpt lat="49.170789249965146" lon="6.053940103081842"><ele>322.0</ele><time>2026-04-19T11:40:34Z</time></trkpt><trkpt lat="49.170851793043425" lon="6.054036494763677"><ele>322.33333333333337</ele><time>2026-04-19T11:40:36Z</time></trkpt><trkpt lat="49.170908826428" lon="6.054134139862842"><ele>322.6666666666667</ele><time>2026-04-19T11:40:41Z</time></trkpt><trkpt lat="49.170992824902015" lon="6.054231640531098"><ele>323.0</ele><time>2026-04-19T11:40:43Z</time></trkpt><trkpt lat="49.171049812005386" lon="6.054311189164181"><ele>323.5</ele><time>2026-04-19T11:40:44Z</time></trkpt><trkpt lat="49.17111346311703" lon="6.054411948270587"><ele>324.0</ele><time>2026-04-19T11:40:45Z</time></trkpt><trkpt lat="49.17119538548863" lon="6.054534446002873"><ele>324.5</ele><time>2026-04-19T11:40:46Z</time></trkpt><trkpt lat="49.17129249948365" lon="6.054679824915322"><ele>325.0</ele><time>2026-04-19T11:40:47Z</time></trkpt><trkpt lat="49.17140642376153" lon="6.054850260371875"><ele>325.66666666666663</ele><time>2026-04-19T11:40:48Z</time></trkpt><trkpt lat="49.17153258376416" lon="6.055045680685719"><ele>326.3333333333333</ele><time>2026-04-19T11:40:49Z</time></trkpt><trkpt lat="49.171662559471024" lon="6.055242847329929"><ele>327.0</ele><time>2026-04-19T11:40:50Z</time></trkpt><trkpt lat="49.171807069491436" lon="6.055468373466172"><ele>327.0</ele><time>2026-04-19T11:40:51Z</time></trkpt><trkpt lat="49.17195594654399" lon="6.055702750455726"><ele>327.0</ele><time>2026-04-19T11:40:52Z</time></trkpt><trkpt lat="49.17210997535123" lon="6.05594640743647"><ele>327.0</ele><time>2026-04-19T11:40:53Z</time></trkpt><trkpt lat="49.1722689166742" lon="6.05620377697224"><ele>328.0</ele><time>2026-04-19T11:40:54Z</time></trkpt><trkpt lat="49.17242931597848" lon="6.056466444280434"><ele>329.0</ele><time>2026-04-19T11:40:55Z</time></trkpt><trkpt lat="49.172588142348026" lon="6.056725054816696"><ele>329.6666666666667</ele><time>2026-04-19T11:40:56Z</time></trkpt><trkpt lat="49.17273151203784" lon="6.056964078813494"><ele>330.3333333333333</ele><time>2026-04-19T11:40:57Z</time></trkpt><trkpt lat="49.17285120420402" lon="6.057165654625027"><ele>331.0</ele><time>2026-04-19T11:40:58Z</time></trkpt><trkpt lat="49.172957986243745" lon="6.05735258823133"><ele>331.75</ele><time>2026-04-19T11:40:59Z</time></trkpt><trkpt lat="49.173046405219694" lon="6.057527268221012"><ele>332.5</ele><time>2026-04-19T11:41:00Z</time></trkpt><trkpt lat="49.17312653059554" lon="6.057684743568478"><ele>333.25</ele><time>2026-04-19T11:41:01Z</time></trkpt><trkpt lat="49.17319902775413" lon="6.057839623747821"><ele>334.0</ele><time>2026-04-19T11:41:02Z</time></trkpt><trkpt lat="49.17327873417445" lon="6.057995882070721"><ele>334.0</ele><time>2026-04-19T11:41:03Z</time></trkpt><trkpt lat="49.173344593355104" lon="6.058137105357619"><ele>334.0</ele><time>2026-04-19T11:41:04Z</time></trkpt><trkpt lat="49.17339944792707" lon="6.058256881312614"><ele>334.0</ele><time>2026-04-19T11:41:05Z</time></trkpt><trkpt lat="49.17344550263844" lon="6.058356995596211"><ele>334.0</ele><time>2026-04-19T11:41:06Z</time></trkpt><trkpt lat="49.173481968991894" lon="6.05844869181713"><ele>334.0</ele><time>2026-04-19T11:41:07Z</time></trkpt><trkpt lat="49.1735432716503" lon="6.058591186551532"><ele>334.16666666666663</ele><time>2026-04-19T11:41:09Z</time></trkpt><trkpt lat="49.17358725573782" lon="6.058689154749802"><ele>334.3333333333333</ele><time>2026-04-19T11:41:11Z</time></trkpt><trkpt lat="49.17364772768493" lon="6.05875749785577"><ele>334.5</ele><time>2026-04-19T11:41:13Z</time></trkpt><trkpt lat="49.17375479569677" lon="6.058785464823583"><ele>334.6666666666667</ele><time>2026-04-19T11:41:15Z</time></trkpt><trkpt lat="49.17387222382467" lon="6.0587558657594744"><ele>334.83333333333337</ele><time>2026-04-19T11:41:17Z</time></trkpt><trkpt lat="49.17393465244344" lon="6.058714073461432"><ele>335.0</ele><time>2026-04-19T11:41:18Z</time></trkpt><trkpt lat="49.17399544689176" lon="6.058673596248028"><ele>335.2</ele><time>2026-04-19T11:41:19Z</time></trkpt><trkpt lat="49.17405688725967" lon="6.058632537521617"><ele>335.4</ele><time>2026-04-19T11:41:20Z</time></trkpt><trkpt lat="49.174166410608144" lon="6.058564810024674"><ele>335.6</ele><time>2026-04-19T11:41:22Z</time></trkpt><trkpt lat="49.174224809804585" lon="6.0585283817898485"><ele>335.8</ele><time>2026-04-19T11:41:23Z</time></trkpt><trkpt lat="49.17434038752413" lon="6.0584495470975055"><ele>336.0</ele><time>2026-04-19T11:41:25Z</time></trkpt><trkpt lat="49.17444448219597" lon="6.058374376473314"><ele>336.0</ele><time>2026-04-19T11:41:27Z</time></trkpt><trkpt lat="49.174502721586904" lon="6.058327725003437"><ele>336.0</ele><time>2026-04-19T11:41:28Z</time></trkpt><trkpt lat="49.17455861293854" lon="6.058279339387934"><ele>336.0</ele><time>2026-04-19T11:41:29Z</time></trkpt><trkpt lat="49.174659639517756" lon="6.058180419157262"><ele>336.0</ele><time>2026-04-19T11:41:31Z</time></trkpt><trkpt lat="49.17471953418118" lon="6.058114106295684"><ele>336.0</ele><time>2026-04-19T11:41:32Z</time></trkpt><trkpt lat="49.1748065305444" lon="6.058014638358074"><ele>336.0</ele><time>2026-04-19T11:41:33Z</time></trkpt><trkpt lat="49.174908396257926" lon="6.057899799675452"><ele>335.75</ele><time>2026-04-19T11:41:34Z</time></trkpt><trkpt lat="49.175023181109886" lon="6.057776989427014"><ele>335.5</ele><time>2026-04-19T11:41:34.999Z</time></trkpt><trkpt lat="49.17513488283589" lon="6.05765669672316"><ele>335.25</ele><time>2026-04-19T11:41:35.999Z</time></trkpt><trkpt lat="49.17522629714486" lon="6.057566677283796"><ele>335.0</ele><time>2026-04-19T11:41:36.999Z</time></trkpt><trkpt lat="49.17530147350435" lon="6.0575073421092265"><ele>335.0</ele><time>2026-04-19T11:41:37.999Z</time></trkpt><trkpt lat="49.17537476030815" lon="6.057456390409908"><ele>335.0</ele><time>2026-04-19T11:41:38.999Z</time></trkpt><trkpt lat="49.17543893609743" lon="6.057416447039764"><ele>335.0</ele><time>2026-04-19T11:41:39.999Z</time></trkpt><trkpt lat="49.175528502425664" lon="6.057372067541825"><ele>335.0</ele><time>2026-04-19T11:41:41.999Z</time></trkpt><trkpt lat="49.17561919380264" lon="6.057358595432323"><ele>335.0</ele><time>2026-04-19T11:41:43.999Z</time></trkpt><trkpt lat="49.175718884104306" lon="6.057400630991929"><ele>335.0</ele><time>2026-04-19T11:41:45.999Z</time></trkpt><trkpt lat="49.1757994977251" lon="6.057526071918099"><ele>335.5</ele><time>2026-04-19T11:41:47.999Z</time></trkpt><trkpt lat="49.17585416693749" lon="6.057623574727324"><ele>336.0</ele><time>2026-04-19T11:41:49.999Z</time></trkpt><trkpt lat="49.17591810033948" lon="6.057726310967718"><ele>336.5</ele><time>2026-04-19T11:41:52.999Z</time></trkpt><trkpt lat="49.17598164268651" lon="6.057798796039333"><ele>337.0</ele><time>2026-04-19T11:41:54.999Z</time></trkpt><trkpt lat="49.17605525020251" lon="6.057849261440163"><ele>337.5</ele><time>2026-04-19T11:41:56.999Z</time></trkpt><trkpt lat="49.17611744834796" lon="6.057829836711959"><ele>338.0</ele><time>2026-04-19T11:41:59.999Z</time></trkpt><trkpt lat="49.17619218539062" lon="6.05776633476625"><ele>338.0</ele><time>2026-04-19T11:42:02.999Z</time></trkpt><trkpt lat="49.176298417447775" lon="6.0577358750761405"><ele>338.0</ele><time>2026-04-19T11:42:04.999Z</time></trkpt><trkpt lat="49.17640801280055" lon="6.057692021199916"><ele>338.0</ele><time>2026-04-19T11:42:07Z</time></trkpt><trkpt lat="49.17649117465239" lon="6.0576453860809965"><ele>338.0</ele><time>2026-04-19T11:42:09Z</time></trkpt><trkpt lat="49.17658868796417" lon="6.05758785336652"><ele>338.0</ele><time>2026-04-19T11:42:11Z</time></trkpt><trkpt lat="49.17668618431711" lon="6.057539972872858"><ele>338.0</ele><time>2026-04-19T11:42:13Z</time></trkpt><trkpt lat="49.176750188483936" lon="6.057494378819672"><ele>338.0</ele><time>2026-04-19T11:42:14Z</time></trkpt><trkpt lat="49.176848252468815" lon="6.057451625865172"><ele>338.0</ele><time>2026-04-19T11:42:16Z</time></trkpt><trkpt lat="49.17695332612034" lon="6.057407658024855"><ele>338.0</ele><time>2026-04-19T11:42:18Z</time></trkpt><trkpt lat="49.1770536942058" lon="6.057381175293318"><ele>338.0</ele><time>2026-04-19T11:42:20Z</time></trkpt><trkpt lat="49.17714815625858" lon="6.057330699994989"><ele>337.4</ele><time>2026-04-19T11:42:22Z</time></trkpt><trkpt lat="49.177222497832226" lon="6.057298000628513"><ele>336.79999999999995</ele><time>2026-04-19T11:42:24Z</time></trkpt><trkpt lat="49.17730322294645" lon="6.057379127318807"><ele>336.2</ele><time>2026-04-19T11:42:26Z</time></trkpt><trkpt lat="49.17735511946507" lon="6.057467319834676"><ele>335.6</ele><time>2026-04-19T11:42:27Z</time></trkpt><trkpt lat="49.17742866571535" lon="6.057587093590416"><ele>335.0</ele><time>2026-04-19T11:42:28Z</time></trkpt><trkpt lat="49.17752309227984" lon="6.057745123242597"><ele>335.0</ele><time>2026-04-19T11:42:29Z</time></trkpt><trkpt lat="49.177630491775446" lon="6.057926341002909"><ele>335.0</ele><time>2026-04-19T11:42:30Z</time></trkpt><trkpt lat="49.17775718321313" lon="6.058129094514644"><ele>335.0</ele><time>2026-04-19T11:42:31Z</time></trkpt><trkpt lat="49.17786644660521" lon="6.0583056569185985"><ele>335.25</ele><time>2026-04-19T11:42:32Z</time></trkpt><trkpt lat="49.17796013892393" lon="6.058457318867668"><ele>335.5</ele><time>2026-04-19T11:42:33Z</time></trkpt><trkpt lat="49.17804673858505" lon="6.058597452960216"><ele>335.75</ele><time>2026-04-19T11:42:34Z</time></trkpt><trkpt lat="49.178121060481104" lon="6.058715996327909"><ele>336.0</ele><time>2026-04-19T11:42:35Z</time></trkpt><trkpt lat="49.17818093686162" lon="6.058814827680909"><ele>335.5</ele><time>2026-04-19T11:42:36Z</time></trkpt><trkpt lat="49.17823288966549" lon="6.058902494712515"><ele>335.0</ele><time>2026-04-19T11:42:37Z</time></trkpt><trkpt lat="49.17827619656841" lon="6.0589868141801375"><ele>334.5</ele><time>2026-04-19T11:42:38Z</time></trkpt><trkpt lat="49.178317240774696" lon="6.059073153610334"><ele>334.0</ele><time>2026-04-19T11:42:39Z</time></trkpt><trkpt lat="49.17837525552302" lon="6.059208965414772"><ele>333.5</ele><time>2026-04-19T11:42:41Z</time></trkpt><trkpt lat="49.1783789938338" lon="6.059352107619695"><ele>333.0</ele><time>2026-04-19T11:42:44Z</time></trkpt><trkpt lat="49.17840803687026" lon="6.059536707823934"><ele>333.0</ele><time>2026-04-19T11:42:46Z</time></trkpt><trkpt lat="49.17843747375551" lon="6.059645943705666"><ele>333.0</ele><time>2026-04-19T11:42:47Z</time></trkpt><trkpt lat="49.17846506184147" lon="6.059760732746075"><ele>333.0</ele><time>2026-04-19T11:42:48Z</time></trkpt><trkpt lat="49.17848740374874" lon="6.0598836006215935"><ele>333.0</ele><time>2026-04-19T11:42:49Z</time></trkpt><trkpt lat="49.17850502757822" lon="6.059991330399792"><ele>333.0</ele><time>2026-04-19T11:42:50Z</time></trkpt><trkpt lat="49.17851121952631" lon="6.060089201691902"><ele>333.0</ele><time>2026-04-19T11:42:51Z</time></trkpt><trkpt lat="49.1785325751516" lon="6.0602247219968834"><ele>333.3333333333333</ele><time>2026-04-19T11:42:53Z</time></trkpt><trkpt lat="49.17855678884435" lon="6.060313698468981"><ele>333.6666666666667</ele><time>2026-04-19T11:42:55Z</time></trkpt><trkpt lat="49.178577889701145" lon="6.060439338896903"><ele>334.0</ele><time>2026-04-19T11:42:57Z</time></trkpt><trkpt lat="49.17856822845043" lon="6.060541674654601"><ele>334.33333333333337</ele><time>2026-04-19T11:42:59Z</time></trkpt><trkpt lat="49.17860688524847" lon="6.060643386374863"><ele>334.6666666666667</ele><time>2026-04-19T11:43:01Z</time></trkpt><trkpt lat="49.17862831841127" lon="6.060795816137378"><ele>335.0</ele><time>2026-04-19T11:43:03Z</time></trkpt><trkpt lat="49.17868394445903" lon="6.06092916367762"><ele>335.0</ele><time>2026-04-19T11:43:05Z</time></trkpt><trkpt lat="49.17876896844707" lon="6.060967772811102"><ele>335.0</ele><time>2026-04-19T11:43:07Z</time></trkpt><trkpt lat="49.17886064368538" lon="6.060934543707316"><ele>335.0</ele><time>2026-04-19T11:43:09Z</time></trkpt><trkpt lat="49.17895708675566" lon="6.060903849343455"><ele>335.0</ele><time>2026-04-19T11:43:11Z</time></trkpt><trkpt lat="49.17905368653538" lon="6.060903043912121"><ele>335.0</ele><time>2026-04-19T11:43:13Z</time></trkpt><trkpt lat="49.17916425526137" lon="6.060890650966546"><ele>335.0</ele><time>2026-04-19T11:43:15Z</time></trkpt><trkpt lat="49.17926286898895" lon="6.060890875978538"><ele>335.0</ele><time>2026-04-19T11:43:17Z</time></trkpt><trkpt lat="49.179375201608146" lon="6.060875951673005"><ele>335.0</ele><time>2026-04-19T11:43:19Z</time></trkpt><trkpt lat="49.17945880100779" lon="6.060870965609518"><ele>335.0</ele><time>2026-04-19T11:43:21Z</time></trkpt><trkpt lat="49.1795281687143" lon="6.0609300046108245"><ele>335.0</ele><time>2026-04-19T11:43:23Z</time></trkpt><trkpt lat="49.17959487279997" lon="6.061055346585701"><ele>335.0</ele><time>2026-04-19T11:43:25Z</time></trkpt><trkpt lat="49.17963772810827" lon="6.061139631614634"><ele>335.0</ele><time>2026-04-19T11:43:26Z</time></trkpt><trkpt lat="49.17969151994162" lon="6.061238413498211"><ele>335.0</ele><time>2026-04-19T11:43:27Z</time></trkpt><trkpt lat="49.179739749478955" lon="6.0613305439407545"><ele>335.0</ele><time>2026-04-19T11:43:28Z</time></trkpt><trkpt lat="49.17980728495697" lon="6.061458905031196"><ele>335.0</ele><time>2026-04-19T11:43:30Z</time></trkpt><trkpt lat="49.179856274213186" lon="6.0615261984197195"><ele>335.0</ele><time>2026-04-19T11:43:32Z</time></trkpt><trkpt lat="49.179906290625176" lon="6.061623478513602"><ele>334.6666666666667</ele><time>2026-04-19T11:43:35Z</time></trkpt><trkpt lat="49.179972620824984" lon="6.061737211811696"><ele>334.33333333333337</ele><time>2026-04-19T11:43:37Z</time></trkpt><trkpt lat="49.179994566626135" lon="6.061844408662936"><ele>334.0</ele><time>2026-04-19T11:43:38.999Z</time></trkpt><trkpt lat="49.180024021746334" lon="6.061974447727933"><ele>333.6666666666667</ele><time>2026-04-19T11:43:40.999Z</time></trkpt><trkpt lat="49.18009378946638" lon="6.06211773710725"><ele>333.3333333333333</ele><time>2026-04-19T11:43:42.999Z</time></trkpt><trkpt lat="49.180129553185516" lon="6.062203588493386"><ele>333.0</ele><time>2026-04-19T11:43:43.999Z</time></trkpt><trkpt lat="49.18018821037165" lon="6.062345223141483"><ele>333.4</ele><time>2026-04-19T11:43:45.999Z</time></trkpt><trkpt lat="49.1802177284005" lon="6.062502418869643"><ele>333.79999999999995</ele><time>2026-04-19T11:43:47.999Z</time></trkpt><trkpt lat="49.18024018190873" lon="6.062596424633755"><ele>334.2</ele><time>2026-04-19T11:43:48.999Z</time></trkpt><trkpt lat="49.18028946920864" lon="6.062709655607282"><ele>334.6</ele><time>2026-04-19T11:43:50.999Z</time></trkpt><trkpt lat="49.18034519903468" lon="6.0628798918994935"><ele>335.0</ele><time>2026-04-19T11:43:52.999Z</time></trkpt><trkpt lat="49.180401366948956" lon="6.063030121372111"><ele>335.0</ele><time>2026-04-19T11:43:54.999Z</time></trkpt><trkpt lat="49.18044066604651" lon="6.063120068285802"><ele>335.0</ele><time>2026-04-19T11:43:55.999Z</time></trkpt><trkpt lat="49.1805015637773" lon="6.063232714804796"><ele>335.0</ele><time>2026-04-19T11:43:57.999Z</time></trkpt><trkpt lat="49.18055581134109" lon="6.063378609414702"><ele>335.0</ele><time>2026-04-19T11:43:59.999Z</time></trkpt><trkpt lat="49.180615998385136" lon="6.063522545298001"><ele>335.0</ele><time>2026-04-19T11:44:01.999Z</time></trkpt><trkpt lat="49.18065122202701" lon="6.063657417702522"><ele>335.5</ele><time>2026-04-19T11:44:03.999Z</time></trkpt><trkpt lat="49.18067909471983" lon="6.063775392211414"><ele>336.0</ele><time>2026-04-19T11:44:05.999Z</time></trkpt><trkpt lat="49.180680221780584" lon="6.063878345136122"><ele>336.5</ele><time>2026-04-19T11:44:08.999Z</time></trkpt><trkpt lat="49.180634644857626" lon="6.063964420159337"><ele>337.0</ele><time>2026-04-19T11:44:10.999Z</time></trkpt><trkpt lat="49.18058966715892" lon="6.064087720792972"><ele>337.5</ele><time>2026-04-19T11:44:14Z</time></trkpt><trkpt lat="49.180513046783155" lon="6.064189772869325"><ele>338.0</ele><time>2026-04-19T11:44:16Z</time></trkpt><trkpt lat="49.180440427324385" lon="6.064285932929253"><ele>338.33333333333337</ele><time>2026-04-19T11:44:18Z</time></trkpt><trkpt lat="49.18034706516723" lon="6.064359143364144"><ele>338.6666666666667</ele><time>2026-04-19T11:44:20Z</time></trkpt><trkpt lat="49.18027685194406" lon="6.064416106352633"><ele>339.0</ele><time>2026-04-19T11:44:22Z</time></trkpt><trkpt lat="49.18020730942698" lon="6.064502727025665"><ele>339.3333333333333</ele><time>2026-04-19T11:44:24Z</time></trkpt><trkpt lat="49.180165222508805" lon="6.06461949870848"><ele>339.66666666666663</ele><time>2026-04-19T11:44:26Z</time></trkpt><trkpt lat="49.18013007503028" lon="6.064720546027851"><ele>340.0</ele><time>2026-04-19T11:44:28Z</time></trkpt><trkpt lat="49.18011523450131" lon="6.064860412808124"><ele>340.4</ele><time>2026-04-19T11:44:30Z</time></trkpt><trkpt lat="49.1801142989999" lon="6.065016053568813"><ele>340.8</ele><time>2026-04-19T11:44:32Z</time></trkpt><trkpt lat="49.18011893058202" lon="6.065184246118838"><ele>341.20000000000005</ele><time>2026-04-19T11:44:34Z</time></trkpt><trkpt lat="49.180112886295944" lon="6.065292747372003"><ele>341.6</ele><time>2026-04-19T11:44:36Z</time></trkpt><trkpt lat="49.18009296742192" lon="6.065422822862676"><ele>342.0</ele><time>2026-04-19T11:44:39Z</time></trkpt><trkpt lat="49.18005238220975" lon="6.065588572628496"><ele>342.0</ele><time>2026-04-19T11:44:41Z</time></trkpt><trkpt lat="49.18002870762544" lon="6.065690816858624"><ele>342.0</ele><time>2026-04-19T11:44:42Z</time></trkpt><trkpt lat="49.18000103060844" lon="6.065795474294888"><ele>342.0</ele><time>2026-04-19T11:44:43Z</time></trkpt><trkpt lat="49.179974700361434" lon="6.065909369319307"><ele>342.0</ele><time>2026-04-19T11:44:44Z</time></trkpt><trkpt lat="49.17994822943274" lon="6.066013160818552"><ele>342.0</ele><time>2026-04-19T11:44:45Z</time></trkpt><trkpt lat="49.17990353477306" lon="6.066179940942167"><ele>342.0</ele><time>2026-04-19T11:44:47Z</time></trkpt><trkpt lat="49.17987483442522" lon="6.066312780532789"><ele>344.20000000000005</ele><time>2026-04-19T11:44:49Z</time></trkpt><trkpt lat="49.179843717337285" lon="6.066471679382768"><ele>346.4</ele><time>2026-04-19T11:44:51Z</time></trkpt><trkpt lat="49.17983758562718" lon="6.066639416285192"><ele>348.6</ele><time>2026-04-19T11:44:53Z</time></trkpt><trkpt lat="49.17982450668896" lon="6.066773428598609"><ele>350.79999999999995</ele><time>2026-04-19T11:44:55Z</time></trkpt><trkpt lat="49.17981233910922" lon="6.066895524682874"><ele>353.0</ele><time>2026-04-19T11:44:57Z</time></trkpt><trkpt lat="49.17982918202964" lon="6.067031084091126"><ele>352.83333333333337</ele><time>2026-04-19T11:44:59Z</time></trkpt><trkpt lat="49.179860929037176" lon="6.06711591113985"><ele>352.6666666666667</ele><time>2026-04-19T11:45:01Z</time></trkpt><trkpt lat="49.17985201000008" lon="6.067221370770589"><ele>352.5</ele><time>2026-04-19T11:45:03Z</time></trkpt><trkpt lat="49.179829198800626" lon="6.067348030036603"><ele>352.3333333333333</ele><time>2026-04-19T11:45:06Z</time></trkpt><trkpt lat="49.17983955375721" lon="6.067464091370999"><ele>352.16666666666663</ele><time>2026-04-19T11:45:11Z</time></trkpt><trkpt lat="49.179857312088714" lon="6.067601950222253"><ele>352.0</ele><time>2026-04-19T11:45:14Z</time></trkpt><trkpt lat="49.17988213491788" lon="6.067712603661195"><ele>352.0</ele><time>2026-04-19T11:45:17Z</time></trkpt><trkpt lat="49.17986768882845" lon="6.067818710434906"><ele>352.0</ele><time>2026-04-19T11:45:21Z</time></trkpt><trkpt lat="49.18000836892488" lon="6.067990500180641"><ele>352.0</ele><time>2026-04-19T11:45:23Z</time></trkpt><trkpt lat="49.17995749645353" lon="6.068149970554657"><ele>352.0</ele><time>2026-04-19T11:45:27Z</time></trkpt><trkpt lat="49.17992546610223" lon="6.068248598264624"><ele>352.0</ele><time>2026-04-19T11:45:33Z</time></trkpt><trkpt lat="49.17988391556423" lon="6.06837406741457"><ele>353.8333333333333</ele><time>2026-04-19T11:45:36.999Z</time></trkpt><trkpt lat="49.17983885904934" lon="6.068507928876977"><ele>355.66666666666663</ele><time>2026-04-19T11:45:39.999Z</time></trkpt><trkpt lat="49.179807424513385" lon="6.06860103991208"><ele>357.5</ele><time>2026-04-19T11:45:42.999Z</time></trkpt><trkpt lat="49.179771650922795" lon="6.068705824201383"><ele>359.3333333333333</ele><time>2026-04-19T11:45:46.999Z</time></trkpt><trkpt lat="49.1797343491688" lon="6.068815084618175"><ele>361.1666666666667</ele><time>2026-04-19T11:45:50.999Z</time></trkpt><trkpt lat="49.17970370385085" lon="6.0689048477294945"><ele>363.0</ele><time>2026-04-19T11:45:53.999Z</time></trkpt><trkpt lat="49.17967151046828" lon="6.068998136055491"><ele>363.0</ele><time>2026-04-19T11:45:56.999Z</time></trkpt><trkpt lat="49.1795907611449" lon="6.069230609215821"><ele>363.0</ele><time>2026-04-19T11:46:02.999Z</time></trkpt><trkpt lat="49.17955934907144" lon="6.069321042873538"><ele>363.0</ele><time>2026-04-19T11:46:05.999Z</time></trkpt><trkpt lat="49.17952221229758" lon="6.069428010238404"><ele>363.0</ele><time>2026-04-19T11:46:08.999Z</time></trkpt><trkpt lat="49.17947930836228" lon="6.069549864910671"><ele>363.0</ele><time>2026-04-19T11:46:12.999Z</time></trkpt><trkpt lat="49.179442992896085" lon="6.0696530071850034"><ele>363.0</ele><time>2026-04-19T11:46:14.999Z</time></trkpt><trkpt lat="49.17940205384362" lon="6.069769281269429"><ele>363.0</ele><time>2026-04-19T11:46:20Z</time></trkpt><trkpt lat="49.179366805545804" lon="6.069869392521089"><ele>363.0</ele><time>2026-04-19T11:46:23Z</time></trkpt><trkpt lat="49.179025315841415" lon="6.069619964373855"><ele>363.3333333333333</ele><time>2026-04-19T11:46:25Z</time></trkpt><trkpt lat="49.178955601551124" lon="6.06966948942666"><ele>363.6666666666667</ele><time>2026-04-19T11:46:27Z</time></trkpt><trkpt lat="49.17888747479443" lon="6.0697296120533615"><ele>364.0</ele><time>2026-04-19T11:46:30Z</time></trkpt><trkpt lat="49.1788305797967" lon="6.069781008902012"><ele>364.33333333333337</ele><time>2026-04-19T11:46:32Z</time></trkpt><trkpt lat="49.17879301773885" lon="6.069886180000939"><ele>364.6666666666667</ele><time>2026-04-19T11:46:36Z</time></trkpt><trkpt lat="49.17887909003272" lon="6.069949524288526"><ele>365.0</ele><time>2026-04-19T11:46:40Z</time></trkpt><trkpt lat="49.17896098113331" lon="6.07000682889923"><ele>364.1666666666667</ele><time>2026-04-19T11:46:42Z</time></trkpt><trkpt lat="49.17903336375214" lon="6.070039358199463"><ele>363.33333333333337</ele><time>2026-04-19T11:46:45Z</time></trkpt><trkpt lat="49.17910376902962" lon="6.0700992264068105"><ele>362.5</ele><time>2026-04-19T11:46:49Z</time></trkpt><trkpt lat="49.179182942099985" lon="6.070177977661033"><ele>361.6666666666667</ele><time>2026-04-19T11:46:53Z</time></trkpt><trkpt lat="49.179236815301536" lon="6.0702737793289545"><ele>360.8333333333333</ele><time>2026-04-19T11:47:07Z</time></trkpt><trkpt lat="49.17931343437427" lon="6.070245107741432"><ele>360.0</ele><time>2026-04-19T11:47:09Z</time></trkpt><trkpt lat="49.179345411391566" lon="6.070151639848146"><ele>360.0</ele><time>2026-04-19T11:47:10Z</time></trkpt><trkpt lat="49.179387309112045" lon="6.070020418058904"><ele>360.0</ele><time>2026-04-19T11:47:11Z</time></trkpt><trkpt lat="49.1794635588244" lon="6.069889535804047"><ele>360.0</ele><time>2026-04-19T11:47:12Z</time></trkpt><trkpt lat="49.17952451576212" lon="6.069716407481076"><ele>360.0</ele><time>2026-04-19T11:47:13Z</time></trkpt><trkpt lat="49.17959055361923" lon="6.069528848459337"><ele>360.75</ele><time>2026-04-19T11:47:14Z</time></trkpt><trkpt lat="49.17965762942257" lon="6.06933616813711"><ele>361.5</ele><time>2026-04-19T11:47:15Z</time></trkpt><trkpt lat="49.17972693505108" lon="6.069136640872836"><ele>362.25</ele><time>2026-04-19T11:47:16Z</time></trkpt><trkpt lat="49.17980018366777" lon="6.068924379997267"><ele>363.0</ele><time>2026-04-19T11:47:17Z</time></trkpt><trkpt lat="49.179862824090975" lon="6.068699953447029"><ele>360.0</ele><time>2026-04-19T11:47:18Z</time></trkpt><trkpt lat="49.179939272954236" lon="6.0684861070108616"><ele>357.0</ele><time>2026-04-19T11:47:19Z</time></trkpt><trkpt lat="49.18001570248309" lon="6.0682592389574825"><ele>354.0</ele><time>2026-04-19T11:47:20Z</time></trkpt><trkpt lat="49.18008531107113" lon="6.068029997837352"><ele>353.3333333333333</ele><time>2026-04-19T11:47:21Z</time></trkpt><trkpt lat="49.18015644072033" lon="6.0678032532079"><ele>352.66666666666663</ele><time>2026-04-19T11:47:22Z</time></trkpt><trkpt lat="49.18022637810883" lon="6.067574217402388"><ele>352.0</ele><time>2026-04-19T11:47:23Z</time></trkpt><trkpt lat="49.180296507142586" lon="6.067351490766063"><ele>351.66666666666663</ele><time>2026-04-19T11:47:24Z</time></trkpt><trkpt lat="49.180367017445114" lon="6.0671276403628065"><ele>351.3333333333333</ele><time>2026-04-19T11:47:25Z</time></trkpt><trkpt lat="49.18043468424866" lon="6.066908885664896"><ele>351.0</ele><time>2026-04-19T11:47:26Z</time></trkpt><trkpt lat="49.18050316949019" lon="6.0666857382778385"><ele>349.3333333333333</ele><time>2026-04-19T11:47:27Z</time></trkpt><trkpt lat="49.18057299616013" lon="6.066462004859512"><ele>347.66666666666663</ele><time>2026-04-19T11:47:28Z</time></trkpt><trkpt lat="49.180635694182065" lon="6.066235450174739"><ele>346.0</ele><time>2026-04-19T11:47:29Z</time></trkpt><trkpt lat="49.1807137964632" lon="6.06601202782734"><ele>345.66666666666663</ele><time>2026-04-19T11:47:30Z</time></trkpt><trkpt lat="49.18077133196236" lon="6.065787411956001"><ele>345.3333333333333</ele><time>2026-04-19T11:47:31Z</time></trkpt><trkpt lat="49.18081251360363" lon="6.065531986377817"><ele>345.0</ele><time>2026-04-19T11:47:32Z</time></trkpt><trkpt lat="49.180865410373684" lon="6.065292842380804"><ele>343.0</ele><time>2026-04-19T11:47:33Z</time></trkpt><trkpt lat="49.180915272325116" lon="6.06505817105777"><ele>341.0</ele><time>2026-04-19T11:47:34Z</time></trkpt><trkpt lat="49.1809651648603" lon="6.064821613175065"><ele>339.0</ele><time>2026-04-19T11:47:35Z</time></trkpt><trkpt lat="49.18100493546886" lon="6.064588127258394"><ele>337.3333333333333</ele><time>2026-04-19T11:47:36Z</time></trkpt><trkpt lat="49.18104913190336" lon="6.06434551956979"><ele>335.66666666666663</ele><time>2026-04-19T11:47:36.999Z</time></trkpt><trkpt lat="49.18109529607523" lon="6.064117394795882"><ele>334.0</ele><time>2026-04-19T11:47:37.999Z</time></trkpt><trkpt lat="49.18114300512843" lon="6.063878610173119"><ele>332.3333333333333</ele><time>2026-04-19T11:47:38.999Z</time></trkpt><trkpt lat="49.18119103482519" lon="6.0636352136479"><ele>330.6666666666667</ele><time>2026-04-19T11:47:39.999Z</time></trkpt><trkpt lat="49.181242303264774" lon="6.063376377120199"><ele>329.0</ele><time>2026-04-19T11:47:40.999Z</time></trkpt><trkpt lat="49.18129762340172" lon="6.063088021159752"><ele>329.0</ele><time>2026-04-19T11:47:41.999Z</time></trkpt><trkpt lat="49.18135554208698" lon="6.062775259332711"><ele>329.0</ele><time>2026-04-19T11:47:42.999Z</time></trkpt><trkpt lat="49.181409645403605" lon="6.062493019607098"><ele>329.0</ele><time>2026-04-19T11:47:43.999Z</time></trkpt><trkpt lat="49.181461146812865" lon="6.062227059108994"><ele>326.0</ele><time>2026-04-19T11:47:44.999Z</time></trkpt><trkpt lat="49.181517619826266" lon="6.0619508474766715"><ele>323.0</ele><time>2026-04-19T11:47:45.999Z</time></trkpt><trkpt lat="49.18157540538357" lon="6.061681037668352"><ele>320.0</ele><time>2026-04-19T11:47:46.999Z</time></trkpt><trkpt lat="49.181635395569586" lon="6.0614111420507255"><ele>319.0</ele><time>2026-04-19T11:47:47.999Z</time></trkpt><trkpt lat="49.181692365858204" lon="6.061137258560167"><ele>318.0</ele><time>2026-04-19T11:47:48.999Z</time></trkpt><trkpt lat="49.18174607727463" lon="6.060867965464637"><ele>317.0</ele><time>2026-04-19T11:47:49.999Z</time></trkpt><trkpt lat="49.181801173987914" lon="6.060594124152366"><ele>317.0</ele><time>2026-04-19T11:47:50.999Z</time></trkpt><trkpt lat="49.18185723181943" lon="6.060332298251187"><ele>317.0</ele><time>2026-04-19T11:47:51.999Z</time></trkpt><trkpt lat="49.18191212384152" lon="6.060068085053026"><ele>317.0</ele><time>2026-04-19T11:47:52.999Z</time></trkpt><trkpt lat="49.1819691668298" lon="6.0598013312235155"><ele>317.25</ele><time>2026-04-19T11:47:53.999Z</time></trkpt><trkpt lat="49.18202552432744" lon="6.059547542870866"><ele>317.5</ele><time>2026-04-19T11:47:54.999Z</time></trkpt><trkpt lat="49.18206225941486" lon="6.059328953668589"><ele>317.75</ele><time>2026-04-19T11:47:55.999Z</time></trkpt><trkpt lat="49.18212460688323" lon="6.059164311517029"><ele>318.0</ele><time>2026-04-19T11:47:56.999Z</time></trkpt><trkpt lat="49.182159534848644" lon="6.059044218621673"><ele>318.5</ele><time>2026-04-19T11:47:57.999Z</time></trkpt><trkpt lat="49.18231267772911" lon="6.058523092895543"><ele>319.0</ele><time>2026-04-19T11:47:58.999Z</time></trkpt><trkpt lat="49.18239568348488" lon="6.058254152163922"><ele>316.66666666666663</ele><time>2026-04-19T11:47:59.999Z</time></trkpt><trkpt lat="49.18246902394508" lon="6.05800716979887"><ele>314.3333333333333</ele><time>2026-04-19T11:48:00.999Z</time></trkpt><trkpt lat="49.18253443040733" lon="6.0577788977777445"><ele>312.0</ele><time>2026-04-19T11:48:01.999Z</time></trkpt><trkpt lat="49.18259155224648" lon="6.057559165525335"><ele>311.3333333333333</ele><time>2026-04-19T11:48:02.999Z</time></trkpt><trkpt lat="49.18264172463796" lon="6.057347570960323"><ele>310.66666666666663</ele><time>2026-04-19T11:48:03.999Z</time></trkpt><trkpt lat="49.182687170446385" lon="6.057132991017817"><ele>310.0</ele><time>2026-04-19T11:48:04.999Z</time></trkpt><trkpt lat="49.18273496399839" lon="6.056892337212936"><ele>310.0</ele><time>2026-04-19T11:48:05.999Z</time></trkpt><trkpt lat="49.182786252899696" lon="6.056639802045928"><ele>310.0</ele><time>2026-04-19T11:48:06.999Z</time></trkpt><trkpt lat="49.182834166794066" lon="6.05638138210696"><ele>310.0</ele><time>2026-04-19T11:48:07.999Z</time></trkpt><trkpt lat="49.18288266206891" lon="6.056112148267951"><ele>309.3333333333333</ele><time>2026-04-19T11:48:08.999Z</time></trkpt><trkpt lat="49.18294215651496" lon="6.055835488166432"><ele>308.6666666666667</ele><time>2026-04-19T11:48:09.999Z</time></trkpt><trkpt lat="49.18300331702431" lon="6.05560180039985"><ele>308.0</ele><time>2026-04-19T11:48:10.999Z</time></trkpt><trkpt lat="49.18306144109214" lon="6.055395095377469"><ele>307.8</ele><time>2026-04-19T11:48:11.999Z</time></trkpt><trkpt lat="49.183125101880776" lon="6.055225565481008"><ele>307.6</ele><time>2026-04-19T11:48:12.999Z</time></trkpt><trkpt lat="49.18317373501781" lon="6.055093563410834"><ele>307.4</ele><time>2026-04-19T11:48:13.999Z</time></trkpt><trkpt lat="49.183218545982434" lon="6.0550005312782575"><ele>307.2</ele><time>2026-04-19T11:48:14.999Z</time></trkpt><trkpt lat="49.18326887149555" lon="6.054942484405914"><ele>307.0</ele><time>2026-04-19T11:48:15.999Z</time></trkpt><trkpt lat="49.18346919210487" lon="6.0550663896524135"><ele>307.0</ele><time>2026-04-19T11:48:18.999Z</time></trkpt><trkpt lat="49.18349463803901" lon="6.055204294530821"><ele>307.0</ele><time>2026-04-19T11:48:19.999Z</time></trkpt><trkpt lat="49.18347378435998" lon="6.055380236721408"><ele>307.0</ele><time>2026-04-19T11:48:20.999Z</time></trkpt><trkpt lat="49.18342209535181" lon="6.0555702188827425"><ele>307.0</ele><time>2026-04-19T11:48:21.999Z</time></trkpt><trkpt lat="49.18337304659163" lon="6.055809752157652"><ele>306.3333333333333</ele><time>2026-04-19T11:48:22.999Z</time></trkpt><trkpt lat="49.18330863369221" lon="6.056059686153666"><ele>305.6666666666667</ele><time>2026-04-19T11:48:23.999Z</time></trkpt><trkpt lat="49.18326573020967" lon="6.0563640399776135"><ele>305.0</ele><time>2026-04-19T11:48:25Z</time></trkpt><trkpt lat="49.18325144491928" lon="6.056688842309256"><ele>305.0</ele><time>2026-04-19T11:48:26Z</time></trkpt><trkpt lat="49.18327523685614" lon="6.057015056686403"><ele>305.0</ele><time>2026-04-19T11:48:27Z</time></trkpt><trkpt lat="49.183329432020116" lon="6.057326067196038"><ele>305.0</ele><time>2026-04-19T11:48:28Z</time></trkpt><trkpt lat="49.183429100589194" lon="6.0576186815929"><ele>306.5</ele><time>2026-04-19T11:48:29Z</time></trkpt><trkpt lat="49.18355470712614" lon="6.057908005096559"><ele>308.0</ele><time>2026-04-19T11:48:30Z</time></trkpt><trkpt lat="49.183702086037805" lon="6.058199876329923"><ele>309.0</ele><time>2026-04-19T11:48:31Z</time></trkpt><trkpt lat="49.183863155180056" lon="6.058495052084603"><ele>310.0</ele><time>2026-04-19T11:48:32Z</time></trkpt><trkpt lat="49.18402379199185" lon="6.058799993611157"><ele>308.0</ele><time>2026-04-19T11:48:33Z</time></trkpt><trkpt lat="49.1841875834766" lon="6.0591146793169965"><ele>306.0</ele><time>2026-04-19T11:48:34Z</time></trkpt><trkpt lat="49.184336403393324" lon="6.059412666048434"><ele>306.3333333333333</ele><time>2026-04-19T11:48:35Z</time></trkpt><trkpt lat="49.18445660241699" lon="6.059694300483019"><ele>306.66666666666663</ele><time>2026-04-19T11:48:36Z</time></trkpt><trkpt lat="49.18456084416116" lon="6.059961936470304"><ele>307.0</ele><time>2026-04-19T11:48:37Z</time></trkpt><trkpt lat="49.184661441901206" lon="6.060204963102766"><ele>307.0</ele><time>2026-04-19T11:48:38Z</time></trkpt><trkpt lat="49.18475446238515" lon="6.060431444706129"><ele>307.0</ele><time>2026-04-19T11:48:39Z</time></trkpt><trkpt lat="49.184835434923556" lon="6.060614629184394"><ele>307.0</ele><time>2026-04-19T11:48:40Z</time></trkpt><trkpt lat="49.18490243944683" lon="6.060773799018014"><ele>307.0</ele><time>2026-04-19T11:48:41Z</time></trkpt><trkpt lat="49.18496098718413" lon="6.06090307657608"><ele>303.6</ele><time>2026-04-19T11:48:42Z</time></trkpt><trkpt lat="49.18501280518297" lon="6.061014170994458"><ele>300.2</ele><time>2026-04-19T11:48:43Z</time></trkpt><trkpt lat="49.185041806559326" lon="6.061116533793307"><ele>296.8</ele><time>2026-04-19T11:48:44Z</time></trkpt><trkpt lat="49.18507184648003" lon="6.0612283405573955"><ele>293.4</ele><time>2026-04-19T11:48:46Z</time></trkpt><trkpt lat="49.185234310886955" lon="6.061179415368829"><ele>290.0</ele><time>2026-04-19T11:48:51Z</time></trkpt><trkpt lat="49.18529488011683" lon="6.061134244272129"><ele>290.0</ele><time>2026-04-19T11:48:55Z</time></trkpt><trkpt lat="49.185247029562106" lon="6.061036973816819"><ele>290.0</ele><time>2026-04-19T11:49:00Z</time></trkpt><trkpt lat="49.18530412730128" lon="6.060982394502061"><ele>290.0</ele><time>2026-04-19T11:49:03Z</time></trkpt><trkpt lat="49.18537960417374" lon="6.061010882981992"><ele>290.0</ele><time>2026-04-19T11:49:07Z</time></trkpt><trkpt lat="49.18544986636065" lon="6.061010430733945"><ele>290.0</ele><time>2026-04-19T11:49:10Z</time></trkpt><trkpt lat="49.1855358393352" lon="6.06097302843848"><ele>290.0</ele><time>2026-04-19T11:49:13Z</time></trkpt><trkpt lat="49.18557882411828" lon="6.060887850250244"><ele>290.0</ele><time>2026-04-19T11:49:15Z</time></trkpt><trkpt lat="49.185659225120666" lon="6.060818038162811"><ele>290.0</ele><time>2026-04-19T11:49:16Z</time></trkpt><trkpt lat="49.185740636541574" lon="6.060738922932243"><ele>290.0</ele><time>2026-04-19T11:49:17Z</time></trkpt><trkpt lat="49.18583184302987" lon="6.060651347708659"><ele>290.0</ele><time>2026-04-19T11:49:18Z</time></trkpt><trkpt lat="49.18593663110899" lon="6.060556858680705"><ele>290.0</ele><time>2026-04-19T11:49:19Z</time></trkpt><trkpt lat="49.18604843449113" lon="6.060468076652324"><ele>291.0</ele><time>2026-04-19T11:49:20Z</time></trkpt><trkpt lat="49.186184111668446" lon="6.060365180855265"><ele>292.0</ele><time>2026-04-19T11:49:21Z</time></trkpt><trkpt lat="49.18632522849332" lon="6.0602585636927815"><ele>293.0</ele><time>2026-04-19T11:49:22Z</time></trkpt><trkpt lat="49.186464064725904" lon="6.060151480398252"><ele>294.2</ele><time>2026-04-19T11:49:23Z</time></trkpt><trkpt lat="49.18659570389946" lon="6.060029125613491"><ele>295.4</ele><time>2026-04-19T11:49:24Z</time></trkpt><trkpt lat="49.18668099100198" lon="6.059936994040735"><ele>296.59999999999997</ele><time>2026-04-19T11:49:25Z</time></trkpt><trkpt lat="49.186752253714744" lon="6.059867489378393"><ele>297.8</ele><time>2026-04-19T11:49:26Z</time></trkpt><trkpt lat="49.18681160444684" lon="6.059831495043301"><ele>299.0</ele><time>2026-04-19T11:49:27Z</time></trkpt><trkpt lat="49.186878700099975" lon="6.059801667879688"><ele>299.0</ele><time>2026-04-19T11:49:28Z</time></trkpt><trkpt lat="49.186944190901826" lon="6.05978648413824"><ele>299.0</ele><time>2026-04-19T11:49:29Z</time></trkpt><trkpt lat="49.187015441388716" lon="6.059771934370661"><ele>299.0</ele><time>2026-04-19T11:49:30Z</time></trkpt><trkpt lat="49.18709722808141" lon="6.059796826567131"><ele>299.0</ele><time>2026-04-19T11:49:31Z</time></trkpt><trkpt lat="49.187198733930906" lon="6.0598474207216615"><ele>299.0</ele><time>2026-04-19T11:49:32Z</time></trkpt><trkpt lat="49.187316744048466" lon="6.059905930376623"><ele>302.5</ele><time>2026-04-19T11:49:33Z</time></trkpt><trkpt lat="49.18745077329083" lon="6.059987167025926"><ele>306.0</ele><time>2026-04-19T11:49:34Z</time></trkpt><trkpt lat="49.18757837399183" lon="6.060092452972998"><ele>309.5</ele><time>2026-04-19T11:49:35Z</time></trkpt><trkpt lat="49.18771473671462" lon="6.060220758269401"><ele>313.0</ele><time>2026-04-19T11:49:36Z</time></trkpt><trkpt lat="49.187814491988405" lon="6.060313204991481"><ele>313.0</ele><time>2026-04-19T11:49:37Z</time></trkpt><trkpt lat="49.187912750360134" lon="6.0603722863378575"><ele>313.0</ele><time>2026-04-19T11:49:38Z</time></trkpt><trkpt lat="49.18801694039393" lon="6.0604143681669855"><ele>313.0</ele><time>2026-04-19T11:49:39Z</time></trkpt><trkpt lat="49.18812503705269" lon="6.060452431487704"><ele>313.0</ele><time>2026-04-19T11:49:40Z</time></trkpt><trkpt lat="49.1882383287197" lon="6.060488097063996"><ele>313.0</ele><time>2026-04-19T11:49:40.999Z</time></trkpt><trkpt lat="49.188365220907485" lon="6.060510185242317"><ele>312.5</ele><time>2026-04-19T11:49:41.999Z</time></trkpt><trkpt lat="49.18847148719706" lon="6.060526178698065"><ele>312.0</ele><time>2026-04-19T11:49:42.999Z</time></trkpt><trkpt lat="49.18854506504882" lon="6.060531204476931"><ele>311.5</ele><time>2026-04-19T11:49:43.999Z</time></trkpt><trkpt lat="49.18860893556082" lon="6.060515867578531"><ele>311.0</ele><time>2026-04-19T11:49:44.999Z</time></trkpt><trkpt lat="49.188683703572536" lon="6.06046357158844"><ele>310.5</ele><time>2026-04-19T11:49:45.999Z</time></trkpt><trkpt lat="49.188778674167594" lon="6.06041390617009"><ele>310.0</ele><time>2026-04-19T11:49:46.999Z</time></trkpt><trkpt lat="49.188895903049875" lon="6.0603363116557345"><ele>311.75</ele><time>2026-04-19T11:49:47.999Z</time></trkpt><trkpt lat="49.18903659448849" lon="6.060235697009385"><ele>313.5</ele><time>2026-04-19T11:49:48.999Z</time></trkpt><trkpt lat="49.189154870086206" lon="6.0601540709319766"><ele>315.25</ele><time>2026-04-19T11:49:49.999Z</time></trkpt><trkpt lat="49.189246767725606" lon="6.060082061541106"><ele>317.0</ele><time>2026-04-19T11:49:50.999Z</time></trkpt><trkpt lat="49.189327305532075" lon="6.060023816893686"><ele>317.0</ele><time>2026-04-19T11:49:51.999Z</time></trkpt><trkpt lat="49.189397840937744" lon="6.059970966111689"><ele>317.0</ele><time>2026-04-19T11:49:52.999Z</time></trkpt><trkpt lat="49.18947607042152" lon="6.059909654828125"><ele>317.0</ele><time>2026-04-19T11:49:53.999Z</time></trkpt><trkpt lat="49.18955404710831" lon="6.059836627175128"><ele>317.0</ele><time>2026-04-19T11:49:54.999Z</time></trkpt><trkpt lat="49.18962588722418" lon="6.059771137605338"><ele>317.0</ele><time>2026-04-19T11:49:56.999Z</time></trkpt><trkpt lat="49.189733625829504" lon="6.059818853308936"><ele>317.75</ele><time>2026-04-19T11:49:59.999Z</time></trkpt><trkpt lat="49.18985246928078" lon="6.05994111215117"><ele>318.5</ele><time>2026-04-19T11:50:01.999Z</time></trkpt><trkpt lat="49.1899269687676" lon="6.06003100197699"><ele>319.25</ele><time>2026-04-19T11:50:02.999Z</time></trkpt><trkpt lat="49.190036793669826" lon="6.06015673256054"><ele>320.0</ele><time>2026-04-19T11:50:03.999Z</time></trkpt><trkpt lat="49.190151454932234" lon="6.060276058278671"><ele>321.0</ele><time>2026-04-19T11:50:04.999Z</time></trkpt><trkpt lat="49.19025790600957" lon="6.060387573839526"><ele>322.0</ele><time>2026-04-19T11:50:05.999Z</time></trkpt><trkpt lat="49.19033747850324" lon="6.06049184780742"><ele>323.0</ele><time>2026-04-19T11:50:06.999Z</time></trkpt><trkpt lat="49.190399804785706" lon="6.060577214171096"><ele>324.0</ele><time>2026-04-19T11:50:07.999Z</time></trkpt><trkpt lat="49.190457612167165" lon="6.060669013228787"><ele>325.0</ele><time>2026-04-19T11:50:08.999Z</time></trkpt><trkpt lat="49.19051730418378" lon="6.060767155334509"><ele>325.6</ele><time>2026-04-19T11:50:09.999Z</time></trkpt><trkpt lat="49.190597647067314" lon="6.060889187059448"><ele>326.2</ele><time>2026-04-19T11:50:10.999Z</time></trkpt><trkpt lat="49.19067633321004" lon="6.061007847869158"><ele>326.79999999999995</ele><time>2026-04-19T11:50:11.999Z</time></trkpt><trkpt lat="49.190738339736924" lon="6.061098354407952"><ele>327.4</ele><time>2026-04-19T11:50:12.999Z</time></trkpt><trkpt lat="49.19081650023192" lon="6.061196725874197"><ele>328.0</ele><time>2026-04-19T11:50:13.999Z</time></trkpt><trkpt lat="49.19090000313939" lon="6.061290219344353"><ele>328.0</ele><time>2026-04-19T11:50:14.999Z</time></trkpt><trkpt lat="49.19098951147262" lon="6.061387898595555"><ele>328.0</ele><time>2026-04-19T11:50:15.999Z</time></trkpt><trkpt lat="49.191066688263625" lon="6.061479986197582"><ele>328.0</ele><time>2026-04-19T11:50:16.999Z</time></trkpt><trkpt lat="49.191141092830456" lon="6.0615761406591675"><ele>328.0</ele><time>2026-04-19T11:50:17.999Z</time></trkpt><trkpt lat="49.19121042163261" lon="6.06166779318134"><ele>328.0</ele><time>2026-04-19T11:50:18.999Z</time></trkpt><trkpt lat="49.19126333250072" lon="6.061742648266962"><ele>328.59999999999997</ele><time>2026-04-19T11:50:19.999Z</time></trkpt><trkpt lat="49.19133005017893" lon="6.061827227385948"><ele>329.2</ele><time>2026-04-19T11:50:20.999Z</time></trkpt><trkpt lat="49.19140894866564" lon="6.061908064675618"><ele>329.8</ele><time>2026-04-19T11:50:21.999Z</time></trkpt><trkpt lat="49.19149327003827" lon="6.062001529039713"><ele>330.4</ele><time>2026-04-19T11:50:22.999Z</time></trkpt><trkpt lat="49.19158483100696" lon="6.062112081500358"><ele>331.0</ele><time>2026-04-19T11:50:23.999Z</time></trkpt><trkpt lat="49.19169670602986" lon="6.0622500649508275"><ele>331.0</ele><time>2026-04-19T11:50:24.999Z</time></trkpt><trkpt lat="49.19179339892293" lon="6.062367511886319"><ele>331.0</ele><time>2026-04-19T11:50:25.999Z</time></trkpt><trkpt lat="49.19188280787184" lon="6.062469291964191"><ele>331.0</ele><time>2026-04-19T11:50:26.999Z</time></trkpt><trkpt lat="49.191955645333614" lon="6.0625565926594325"><ele>331.0</ele><time>2026-04-19T11:50:27.999Z</time></trkpt><trkpt lat="49.192024007283464" lon="6.062636472976266"><ele>331.0</ele><time>2026-04-19T11:50:28.999Z</time></trkpt><trkpt lat="49.19209819708617" lon="6.062716335982567"><ele>332.20000000000005</ele><time>2026-04-19T11:50:29.999Z</time></trkpt><trkpt lat="49.19217655990432" lon="6.062801974355485"><ele>333.40000000000003</ele><time>2026-04-19T11:50:31Z</time></trkpt><trkpt lat="49.192255231692364" lon="6.062896216913787"><ele>334.6</ele><time>2026-04-19T11:50:32Z</time></trkpt><trkpt lat="49.192338220621025" lon="6.0630037135725905"><ele>335.8</ele><time>2026-04-19T11:50:33Z</time></trkpt><trkpt lat="49.19240043511799" lon="6.06309174952066"><ele>337.0</ele><time>2026-04-19T11:50:34Z</time></trkpt><trkpt lat="49.19246869685096" lon="6.063182294461935"><ele>337.16666666666663</ele><time>2026-04-19T11:50:35Z</time></trkpt><trkpt lat="49.19253782331786" lon="6.063264236779794"><ele>337.3333333333333</ele><time>2026-04-19T11:50:36Z</time></trkpt><trkpt lat="49.192602023442454" lon="6.063336489913276"><ele>337.5</ele><time>2026-04-19T11:50:37Z</time></trkpt><trkpt lat="49.19266781556551" lon="6.0634108467981305"><ele>337.6666666666667</ele><time>2026-04-19T11:50:38Z</time></trkpt><trkpt lat="49.19273833086731" lon="6.063492139708274"><ele>337.83333333333337</ele><time>2026-04-19T11:50:39Z</time></trkpt><trkpt lat="49.19279635606202" lon="6.063556068720741"><ele>338.0</ele><time>2026-04-19T11:50:40Z</time></trkpt><trkpt lat="49.192869068486495" lon="6.06366613461802"><ele>338.6666666666667</ele><time>2026-04-19T11:50:42Z</time></trkpt><trkpt lat="49.19292896235439" lon="6.063751821911532"><ele>339.33333333333337</ele><time>2026-04-19T11:50:44Z</time></trkpt><trkpt lat="49.19297572771764" lon="6.063840212392596"><ele>340.0</ele><time>2026-04-19T11:50:46Z</time></trkpt><trkpt lat="49.192966357679346" lon="6.06394005098535"><ele>340.6666666666667</ele><time>2026-04-19T11:50:48Z</time></trkpt><trkpt lat="49.1928924222702" lon="6.064046467341205"><ele>341.3333333333333</ele><time>2026-04-19T11:50:50Z</time></trkpt><trkpt lat="49.19284183783002" lon="6.064118684259838"><ele>342.0</ele><time>2026-04-19T11:50:51Z</time></trkpt><trkpt lat="49.19279300036657" lon="6.064207179055379"><ele>342.6</ele><time>2026-04-19T11:50:52Z</time></trkpt><trkpt lat="49.192752785070766" lon="6.064297860687285"><ele>343.20000000000005</ele><time>2026-04-19T11:50:53Z</time></trkpt><trkpt lat="49.192691462964824" lon="6.064422276366628"><ele>343.8</ele><time>2026-04-19T11:50:54Z</time></trkpt><trkpt lat="49.19261525802046" lon="6.064566765604226"><ele>344.4</ele><time>2026-04-19T11:50:56Z</time></trkpt><trkpt lat="49.192579447671264" lon="6.064646016832991"><ele>345.0</ele><time>2026-04-19T11:50:57Z</time></trkpt><trkpt lat="49.19251523495779" lon="6.06478154398186"><ele>345.0</ele><time>2026-04-19T11:50:59Z</time></trkpt><trkpt lat="49.192456084689795" lon="6.06490168944501"><ele>345.0</ele><time>2026-04-19T11:51:01Z</time></trkpt><trkpt lat="49.19241203663546" lon="6.065006961279364"><ele>345.0</ele><time>2026-04-19T11:51:05Z</time></trkpt><trkpt lat="49.19245542949785" lon="6.065103474141558"><ele>345.0</ele><time>2026-04-19T11:51:08Z</time></trkpt><trkpt lat="49.1925190927836" lon="6.065221202495533"><ele>345.0</ele><time>2026-04-19T11:51:10Z</time></trkpt><trkpt lat="49.19256571701328" lon="6.065287852450503"><ele>345.0</ele><time>2026-04-19T11:51:11Z</time></trkpt><trkpt lat="49.19263037925486" lon="6.065375384746254"><ele>345.6</ele><time>2026-04-19T11:51:13Z</time></trkpt><trkpt lat="49.192685055679775" lon="6.065462066861504"><ele>346.2</ele><time>2026-04-19T11:51:15Z</time></trkpt><trkpt lat="49.192754320853886" lon="6.065584777626934"><ele>346.79999999999995</ele><time>2026-04-19T11:51:17Z</time></trkpt><trkpt lat="49.192826088354856" lon="6.065709685379275"><ele>347.4</ele><time>2026-04-19T11:51:19Z</time></trkpt><trkpt lat="49.19290991400986" lon="6.065841870313975"><ele>348.0</ele><time>2026-04-19T11:51:21Z</time></trkpt><trkpt lat="49.19296945112193" lon="6.065932127557331"><ele>348.7142857142857</ele><time>2026-04-19T11:51:22Z</time></trkpt><trkpt lat="49.19302180702298" lon="6.066039286992799"><ele>349.42857142857144</ele><time>2026-04-19T11:51:23Z</time></trkpt><trkpt lat="49.19306625476928" lon="6.066120616792069"><ele>350.1428571428571</ele><time>2026-04-19T11:51:24Z</time></trkpt><trkpt lat="49.193113133894684" lon="6.066192905107876"><ele>350.8571428571429</ele><time>2026-04-19T11:51:25Z</time></trkpt><trkpt lat="49.19316497801383" lon="6.066254666536638"><ele>351.5714285714286</ele><time>2026-04-19T11:51:26Z</time></trkpt><trkpt lat="49.193218513012965" lon="6.066318873984726"><ele>352.2857142857143</ele><time>2026-04-19T11:51:27Z</time></trkpt><trkpt lat="49.19328108158647" lon="6.066367675583197"><ele>353.0</ele><time>2026-04-19T11:51:28Z</time></trkpt><trkpt lat="49.1934026664712" lon="6.066425317541689"><ele>353.2</ele><time>2026-04-19T11:51:30Z</time></trkpt><trkpt lat="49.19351674947457" lon="6.066522675671837"><ele>353.4</ele><time>2026-04-19T11:51:32Z</time></trkpt><trkpt lat="49.193583563580376" lon="6.06658562275519"><ele>353.59999999999997</ele><time>2026-04-19T11:51:33Z</time></trkpt><trkpt lat="49.193677573609925" lon="6.066703342803955"><ele>353.79999999999995</ele><time>2026-04-19T11:51:35Z</time></trkpt><trkpt lat="49.19374015124988" lon="6.066774106811858"><ele>354.0</ele><time>2026-04-19T11:51:36Z</time></trkpt><trkpt lat="49.19383738192394" lon="6.066861163258112"><ele>354.2</ele><time>2026-04-19T11:51:38Z</time></trkpt><trkpt lat="49.19389949580323" lon="6.066918824909022"><ele>354.4</ele><time>2026-04-19T11:51:38.999Z</time></trkpt><trkpt lat="49.19398292953065" lon="6.0669937319597"><ele>354.6</ele><time>2026-04-19T11:51:40.999Z</time></trkpt><trkpt lat="49.19407758537841" lon="6.0670556023048405"><ele>354.8</ele><time>2026-04-19T11:51:42.999Z</time></trkpt><trkpt lat="49.19418438291377" lon="6.067103696999862"><ele>355.0</ele><time>2026-04-19T11:51:44.999Z</time></trkpt><trkpt lat="49.194284553330995" lon="6.067187319817547"><ele>355.66666666666663</ele><time>2026-04-19T11:51:46.999Z</time></trkpt><trkpt lat="49.19437229140259" lon="6.067304184360936"><ele>356.3333333333333</ele><time>2026-04-19T11:51:48.999Z</time></trkpt><trkpt lat="49.19444640169045" lon="6.067459569435761"><ele>357.0</ele><time>2026-04-19T11:51:50.999Z</time></trkpt><trkpt lat="49.194493234771976" lon="6.0675343250464095"><ele>357.6666666666667</ele><time>2026-04-19T11:51:51.999Z</time></trkpt><trkpt lat="49.194557270707605" lon="6.067596666301893"><ele>358.33333333333337</ele><time>2026-04-19T11:51:53.999Z</time></trkpt><trkpt lat="49.19461882171874" lon="6.0676208664372995"><ele>359.0</ele><time>2026-04-19T11:51:57.999Z</time></trkpt><trkpt lat="49.19468701835404" lon="6.06758470639279"><ele>359.0</ele><time>2026-04-19T11:51:59.999Z</time></trkpt><trkpt lat="49.19476515823502" lon="6.067566168162781"><ele>359.0</ele><time>2026-04-19T11:52:03.999Z</time></trkpt><trkpt lat="49.19482132526452" lon="6.067521361251886"><ele>359.0</ele><time>2026-04-19T11:52:05.999Z</time></trkpt><trkpt lat="49.19489060292935" lon="6.0674636496833445"><ele>359.0</ele><time>2026-04-19T11:52:08.999Z</time></trkpt><trkpt lat="49.194949006551425" lon="6.0674140142349495"><ele>359.0</ele><time>2026-04-19T11:52:11.999Z</time></trkpt><trkpt lat="49.1950305948472" lon="6.067363747515856"><ele>359.0</ele><time>2026-04-19T11:52:14.999Z</time></trkpt><trkpt lat="49.19510694448977" lon="6.067262641786735"><ele>359.33333333333337</ele><time>2026-04-19T11:52:16.999Z</time></trkpt><trkpt lat="49.195160879072084" lon="6.06717649745544"><ele>359.6666666666667</ele><time>2026-04-19T11:52:18.999Z</time></trkpt><trkpt lat="49.19519930335462" lon="6.067089249155802"><ele>360.0</ele><time>2026-04-19T11:52:20.999Z</time></trkpt><trkpt lat="49.19525765059438" lon="6.06697869267399"><ele>360.3333333333333</ele><time>2026-04-19T11:52:29.999Z</time></trkpt><trkpt lat="49.19532089879677" lon="6.066904448905035"><ele>360.66666666666663</ele><time>2026-04-19T11:52:32.999Z</time></trkpt><trkpt lat="49.19539057023186" lon="6.06685940557898"><ele>361.0</ele><time>2026-04-19T11:52:34.999Z</time></trkpt><trkpt lat="49.195472421426885" lon="6.066856730365637"><ele>361.0</ele><time>2026-04-19T11:52:37Z</time></trkpt><trkpt lat="49.1955478887588" lon="6.066895507320255"><ele>361.0</ele><time>2026-04-19T11:52:40Z</time></trkpt><trkpt lat="49.19562486290481" lon="6.06697242853171"><ele>361.0</ele><time>2026-04-19T11:56:33.999Z</time></trkpt><trkpt lat="49.19569348760091" lon="6.06707840120466"><ele>361.0</ele><time>2026-04-19T11:56:35.999Z</time></trkpt><trkpt lat="49.19573602761814" lon="6.067152167990065"><ele>361.0</ele><time>2026-04-19T11:56:36.999Z</time></trkpt><trkpt lat="49.19579286111668" lon="6.067216909631084"><ele>361.0</ele><time>2026-04-19T11:56:37.999Z</time></trkpt><trkpt lat="49.195854206235566" lon="6.067274812452473"><ele>359.66666666666663</ele><time>2026-04-19T11:56:38.999Z</time></trkpt><trkpt lat="49.19591996020294" lon="6.06734387080356"><ele>358.3333333333333</ele><time>2026-04-19T11:56:39.999Z</time></trkpt><trkpt lat="49.19599798816184" lon="6.067428197336015"><ele>357.0</ele><time>2026-04-19T11:56:40.999Z</time></trkpt><trkpt lat="49.196058963296665" lon="6.067497290874366"><ele>355.6666666666667</ele><time>2026-04-19T11:56:41.999Z</time></trkpt><trkpt lat="49.19615728500225" lon="6.067599744609948"><ele>354.33333333333337</ele><time>2026-04-19T11:56:43.999Z</time></trkpt><trkpt lat="49.196209520989115" lon="6.067657519770402"><ele>353.0</ele><time>2026-04-19T11:56:44.999Z</time></trkpt><trkpt lat="49.19626800486283" lon="6.0677167307001225"><ele>353.0</ele><time>2026-04-19T11:56:45.999Z</time></trkpt><trkpt lat="49.19633519203086" lon="6.0677750659080685"><ele>353.0</ele><time>2026-04-19T11:56:46.999Z</time></trkpt><trkpt lat="49.196411234653716" lon="6.067839589235952"><ele>353.0</ele><time>2026-04-19T11:56:47.999Z</time></trkpt><trkpt lat="49.19649109535016" lon="6.067909281155313"><ele>353.0</ele><time>2026-04-19T11:56:48.999Z</time></trkpt><trkpt lat="49.19654712974176" lon="6.0679638501250865"><ele>353.0</ele><time>2026-04-19T11:56:49.999Z</time></trkpt><trkpt lat="49.19664198334115" lon="6.068040481612643"><ele>353.0</ele><time>2026-04-19T11:56:51.999Z</time></trkpt><trkpt lat="49.19670964980635" lon="6.068113741083573"><ele>353.0</ele><time>2026-04-19T11:56:53.999Z</time></trkpt><trkpt lat="49.19680453309747" lon="6.068263931430839"><ele>353.0</ele><time>2026-04-19T11:56:55.999Z</time></trkpt><trkpt lat="49.19687923932475" lon="6.068358525363051"><ele>353.0</ele><time>2026-04-19T11:56:56.999Z</time></trkpt><trkpt lat="49.196951600817535" lon="6.068441204173335"><ele>353.0</ele><time>2026-04-19T11:56:57.999Z</time></trkpt><trkpt lat="49.19700953357141" lon="6.068507150749032"><ele>353.0</ele><time>2026-04-19T11:56:58.999Z</time></trkpt><trkpt lat="49.19707877041603" lon="6.06858366676414"><ele>353.0</ele><time>2026-04-19T11:56:59.999Z</time></trkpt><trkpt lat="49.19714513039839" lon="6.06866727038914"><ele>353.0</ele><time>2026-04-19T11:57:00.999Z</time></trkpt><trkpt lat="49.197215127744286" lon="6.068755373822304"><ele>353.0</ele><time>2026-04-19T11:57:01.999Z</time></trkpt><trkpt lat="49.19727301611278" lon="6.068824007151913"><ele>353.0</ele><time>2026-04-19T11:57:02.999Z</time></trkpt><trkpt lat="49.19734028700755" lon="6.068908307928154"><ele>353.0</ele><time>2026-04-19T11:57:03.999Z</time></trkpt><trkpt lat="49.19739877277966" lon="6.068982748447181"><ele>353.0</ele><time>2026-04-19T11:57:04.999Z</time></trkpt><trkpt lat="49.197463300412394" lon="6.069059672265001"><ele>352.59999999999997</ele><time>2026-04-19T11:57:05.999Z</time></trkpt><trkpt lat="49.19755256151704" lon="6.06917368523194"><ele>352.2</ele><time>2026-04-19T11:57:07.999Z</time></trkpt><trkpt lat="49.197626854435505" lon="6.069279433238968"><ele>351.8</ele><time>2026-04-19T11:57:09.999Z</time></trkpt><trkpt lat="49.19767426476476" lon="6.069344274969367"><ele>351.4</ele><time>2026-04-19T11:57:10.999Z</time></trkpt><trkpt lat="49.19776659337178" lon="6.069451358301668"><ele>351.0</ele><time>2026-04-19T11:57:12.999Z</time></trkpt><trkpt lat="49.19784626307847" lon="6.069581851743435"><ele>351.0</ele><time>2026-04-19T11:57:14.999Z</time></trkpt><trkpt lat="49.19790544328189" lon="6.069638205752826"><ele>351.0</ele><time>2026-04-19T11:57:15.999Z</time></trkpt><trkpt lat="49.197971158337644" lon="6.069680436934861"><ele>351.0</ele><time>2026-04-19T11:57:16.999Z</time></trkpt><trkpt lat="49.19807375669497" lon="6.069775132551645"><ele>351.0</ele><time>2026-04-19T11:57:18.999Z</time></trkpt><trkpt lat="49.1981344358945" lon="6.069846485912485"><ele>351.0</ele><time>2026-04-19T11:57:19.999Z</time></trkpt><trkpt lat="49.19819122667342" lon="6.069908061940422"><ele>351.0</ele><time>2026-04-19T11:57:20.999Z</time></trkpt><trkpt lat="49.19824670738997" lon="6.06997269381212"><ele>351.0</ele><time>2026-04-19T11:57:21.999Z</time></trkpt><trkpt lat="49.198302111018876" lon="6.070036030762373"><ele>351.0</ele><time>2026-04-19T11:57:22.999Z</time></trkpt><trkpt lat="49.198356738279806" lon="6.070096493584951"><ele>351.0</ele><time>2026-04-19T11:57:23.999Z</time></trkpt><trkpt lat="49.19844774088346" lon="6.070218202817812"><ele>351.0</ele><time>2026-04-19T11:57:25.999Z</time></trkpt><trkpt lat="49.198502497728924" lon="6.070322377838306"><ele>351.0</ele><time>2026-04-19T11:57:27.999Z</time></trkpt><trkpt lat="49.19853065003341" lon="6.07045811919973"><ele>351.0</ele><time>2026-04-19T11:57:29.999Z</time></trkpt><trkpt lat="49.19855911347289" lon="6.070626134451617"><ele>353.4</ele><time>2026-04-19T11:57:31.999Z</time></trkpt><trkpt lat="49.198591038362835" lon="6.070818402883791"><ele>355.8</ele><time>2026-04-19T11:57:33.999Z</time></trkpt><trkpt lat="49.19864570385539" lon="6.070975424541346"><ele>358.2</ele><time>2026-04-19T11:57:35.999Z</time></trkpt><trkpt lat="49.19868267577649" lon="6.071075987860185"><ele>360.59999999999997</ele><time>2026-04-19T11:57:36.999Z</time></trkpt><trkpt lat="49.19875390750432" lon="6.071217118064192"><ele>363.0</ele><time>2026-04-19T11:57:38.999Z</time></trkpt><trkpt lat="49.19879084869942" lon="6.071306153708708"><ele>363.0</ele><time>2026-04-19T11:57:39.999Z</time></trkpt><trkpt lat="49.19882120796131" lon="6.071392084659846"><ele>363.0</ele><time>2026-04-19T11:57:40.999Z</time></trkpt><trkpt lat="49.19889257205819" lon="6.071544059296508"><ele>363.0</ele><time>2026-04-19T11:57:42.999Z</time></trkpt><trkpt lat="49.198973463328706" lon="6.071662113622736"><ele>363.0</ele><time>2026-04-19T11:57:44.999Z</time></trkpt><trkpt lat="49.19904577117471" lon="6.071730718218809"><ele>363.0</ele><time>2026-04-19T11:57:46.999Z</time></trkpt><trkpt lat="49.1990967622481" lon="6.071670862018125"><ele>363.0</ele><time>2026-04-19T11:57:55.999Z</time></trkpt><trkpt lat="49.199165578684784" lon="6.0717068400904886"><ele>362.59999999999997</ele><time>2026-04-19T11:58:03.999Z</time></trkpt><trkpt lat="49.19923486888451" lon="6.071680382522716"><ele>362.2</ele><time>2026-04-19T11:58:06.999Z</time></trkpt><trkpt lat="49.19927401411889" lon="6.071544293986212"><ele>361.8</ele><time>2026-04-19T11:58:10.999Z</time></trkpt><trkpt lat="49.19927384838244" lon="6.0714040469401"><ele>361.4</ele><time>2026-04-19T11:58:12.999Z</time></trkpt><trkpt lat="49.199293845773965" lon="6.071262723657297"><ele>361.0</ele><time>2026-04-19T11:58:14.999Z</time></trkpt><trkpt lat="49.199358887422214" lon="6.071154445022037"><ele>360.5</ele><time>2026-04-19T11:58:16.999Z</time></trkpt><trkpt lat="49.19943752339355" lon="6.071103408335447"><ele>360.0</ele><time>2026-04-19T11:58:18.999Z</time></trkpt><trkpt lat="49.199497742304914" lon="6.071071711119123"><ele>359.5</ele><time>2026-04-19T11:58:20.999Z</time></trkpt><trkpt lat="49.19960428219334" lon="6.070978311623186"><ele>359.0</ele><time>2026-04-19T11:58:22.999Z</time></trkpt><trkpt lat="49.19968545927732" lon="6.0709134191052945"><ele>358.5</ele><time>2026-04-19T11:58:24.999Z</time></trkpt><trkpt lat="49.19975748615652" lon="6.070852842054535"><ele>358.0</ele><time>2026-04-19T11:58:26.999Z</time></trkpt><trkpt lat="49.19982736138505" lon="6.070702926005884"><ele>358.0</ele><time>2026-04-19T11:58:28.999Z</time></trkpt><trkpt lat="49.1998734912703" lon="6.070630868206413"><ele>358.0</ele><time>2026-04-19T11:58:29.999Z</time></trkpt><trkpt lat="49.19995829547854" lon="6.070534206793372"><ele>358.0</ele><time>2026-04-19T11:58:31.999Z</time></trkpt><trkpt lat="49.20004222257376" lon="6.07044120881494"><ele>358.0</ele><time>2026-04-19T11:58:33.999Z</time></trkpt><trkpt lat="49.20013141823043" lon="6.0704454517792215"><ele>358.0</ele><time>2026-04-19T11:58:35.999Z</time></trkpt><trkpt lat="49.20020698846667" lon="6.070496184172865"><ele>358.0</ele><time>2026-04-19T11:58:37.999Z</time></trkpt><trkpt lat="49.20028199266724" lon="6.070568421305367"><ele>358.0</ele><time>2026-04-19T11:58:39.999Z</time></trkpt><trkpt lat="49.2003517352416" lon="6.07053497873896"><ele>358.0</ele><time>2026-04-19T11:58:41.999Z</time></trkpt><trkpt lat="49.20039921828112" lon="6.070424686539213"><ele>358.0</ele><time>2026-04-19T11:58:43.999Z</time></trkpt><trkpt lat="49.200450990415504" lon="6.070295267913046"><ele>358.0</ele><time>2026-04-19T11:58:45.999Z</time></trkpt><trkpt lat="49.20049809166027" lon="6.0701954145590395"><ele>358.0</ele><time>2026-04-19T11:58:47.999Z</time></trkpt><trkpt lat="49.20055855178817" lon="6.070133691215819"><ele>358.0</ele><time>2026-04-19T11:58:49.999Z</time></trkpt><trkpt lat="49.200644930208355" lon="6.070041387458609"><ele>358.59999999999997</ele><time>2026-04-19T11:58:51.999Z</time></trkpt><trkpt lat="49.20073503192764" lon="6.069933961932809"><ele>359.2</ele><time>2026-04-19T11:58:53.999Z</time></trkpt><trkpt lat="49.20080503592198" lon="6.069892007840677"><ele>359.8</ele><time>2026-04-19T11:58:55.999Z</time></trkpt><trkpt lat="49.200909461009886" lon="6.069840975933796"><ele>360.4</ele><time>2026-04-19T11:58:57.999Z</time></trkpt><trkpt lat="49.20099558123213" lon="6.0698640459319595"><ele>361.0</ele><time>2026-04-19T11:59:00.999Z</time></trkpt><trkpt lat="49.201088290053086" lon="6.069804680420901"><ele>361.0</ele><time>2026-04-19T11:59:03.999Z</time></trkpt><trkpt lat="49.20116072861167" lon="6.069718404865432"><ele>361.0</ele><time>2026-04-19T11:59:05.999Z</time></trkpt><trkpt lat="49.20125147790735" lon="6.069593453508112"><ele>361.0</ele><time>2026-04-19T11:59:07.999Z</time></trkpt><trkpt lat="49.201322657771655" lon="6.069470356116628"><ele>361.0</ele><time>2026-04-19T11:59:09.999Z</time></trkpt><trkpt lat="49.201372781623654" lon="6.0694031169961615"><ele>361.0</ele><time>2026-04-19T11:59:10.999Z</time></trkpt><trkpt lat="49.20144164761906" lon="6.069281737539369"><ele>360.66666666666663</ele><time>2026-04-19T11:59:12.999Z</time></trkpt><trkpt lat="49.201521861831836" lon="6.069219168031377"><ele>360.3333333333333</ele><time>2026-04-19T11:59:15.999Z</time></trkpt><trkpt lat="49.20156588495745" lon="6.069116930213677"><ele>360.0</ele><time>2026-04-19T11:59:17.999Z</time></trkpt><trkpt lat="49.20160524345056" lon="6.068980808236821"><ele>359.6666666666667</ele><time>2026-04-19T11:59:19.999Z</time></trkpt><trkpt lat="49.20164881102065" lon="6.068842722832018"><ele>359.33333333333337</ele><time>2026-04-19T11:59:21.999Z</time></trkpt><trkpt lat="49.201701256475985" lon="6.068772808179188"><ele>359.0</ele><time>2026-04-19T11:59:23.999Z</time></trkpt><trkpt lat="49.201779133522216" lon="6.068760542519442"><ele>359.0</ele><time>2026-04-19T11:59:25.999Z</time></trkpt><trkpt lat="49.20186265057939" lon="6.068792312177119"><ele>359.0</ele><time>2026-04-19T11:59:27.999Z</time></trkpt><trkpt lat="49.20195053383702" lon="6.068874247449519"><ele>359.0</ele><time>2026-04-19T11:59:29.999Z</time></trkpt><trkpt lat="49.20204181206465" lon="6.068977980085453"><ele>359.0</ele><time>2026-04-19T11:59:31.999Z</time></trkpt><trkpt lat="49.2021124874335" lon="6.06907617256779"><ele>359.0</ele><time>2026-04-19T11:59:33.999Z</time></trkpt><trkpt lat="49.20219423528086" lon="6.069188423755194"><ele>359.0</ele><time>2026-04-19T11:59:35.999Z</time></trkpt><trkpt lat="49.20227316913111" lon="6.069329508602021"><ele>359.0</ele><time>2026-04-19T11:59:37.999Z</time></trkpt><trkpt lat="49.202325661285364" lon="6.069444711825153"><ele>359.0</ele><time>2026-04-19T11:59:39.999Z</time></trkpt><trkpt lat="49.20239869975614" lon="6.069563290709205"><ele>359.0</ele><time>2026-04-19T11:59:41.999Z</time></trkpt><trkpt lat="49.202447926066625" lon="6.069675344675927"><ele>359.0</ele><time>2026-04-19T11:59:43.999Z</time></trkpt><trkpt lat="49.202506670841906" lon="6.069770563742615"><ele>359.0</ele><time>2026-04-19T11:59:45.999Z</time></trkpt><trkpt lat="49.20258612396087" lon="6.069779649601195"><ele>359.0</ele><time>2026-04-19T11:59:47.999Z</time></trkpt><trkpt lat="49.20265254776163" lon="6.069717022506087"><ele>359.0</ele><time>2026-04-19T11:59:49.999Z</time></trkpt><trkpt lat="49.20274443391413" lon="6.069590449200357"><ele>359.0</ele><time>2026-04-19T11:59:51.999Z</time></trkpt><trkpt lat="49.20282589585156" lon="6.069485313648898"><ele>359.0</ele><time>2026-04-19T11:59:53.999Z</time></trkpt><trkpt lat="49.202878320610786" lon="6.06942757575886"><ele>359.0</ele><time>2026-04-19T11:59:54.999Z</time></trkpt><trkpt lat="49.202960722836956" lon="6.069336236151749"><ele>359.0</ele><time>2026-04-19T11:59:56.999Z</time></trkpt><trkpt lat="49.20302662705153" lon="6.069239884886134"><ele>359.0</ele><time>2026-04-19T11:59:58.999Z</time></trkpt><trkpt lat="49.20308412485304" lon="6.069138290229515"><ele>359.0</ele><time>2026-04-19T12:00:00.999Z</time></trkpt><trkpt lat="49.20315876431684" lon="6.069070686463894"><ele>359.0</ele><time>2026-04-19T12:00:03.999Z</time></trkpt><trkpt lat="49.203207399410346" lon="6.0689871417968115"><ele>359.0</ele><time>2026-04-19T12:00:05.999Z</time></trkpt><trkpt lat="49.20325501504589" lon="6.068859907921665"><ele>358.4</ele><time>2026-04-19T12:00:08.999Z</time></trkpt><trkpt lat="49.20329172139891" lon="6.068757284774238"><ele>357.79999999999995</ele><time>2026-04-19T12:00:10.999Z</time></trkpt><trkpt lat="49.203359439180495" lon="6.068693304227854"><ele>357.20000000000005</ele><time>2026-04-19T12:00:13.999Z</time></trkpt><trkpt lat="49.203447389371355" lon="6.068647663190119"><ele>356.6</ele><time>2026-04-19T12:00:15.999Z</time></trkpt><trkpt lat="49.20350921483144" lon="6.068569941877316"><ele>356.0</ele><time>2026-04-19T12:00:17.999Z</time></trkpt><trkpt lat="49.20359384050906" lon="6.068436965408938"><ele>356.0</ele><time>2026-04-19T12:00:19.999Z</time></trkpt><trkpt lat="49.20366865138654" lon="6.068321406586365"><ele>356.0</ele><time>2026-04-19T12:00:21.999Z</time></trkpt><trkpt lat="49.203742678094464" lon="6.068219617853466"><ele>356.0</ele><time>2026-04-19T12:00:23.999Z</time></trkpt><trkpt lat="49.203833345271455" lon="6.068129014924018"><ele>356.0</ele><time>2026-04-19T12:00:25.999Z</time></trkpt><trkpt lat="49.203903428288996" lon="6.068065471467941"><ele>356.0</ele><time>2026-04-19T12:00:27.999Z</time></trkpt><trkpt lat="49.20396762872388" lon="6.068029555056506"><ele>354.8</ele><time>2026-04-19T12:00:28.999Z</time></trkpt><trkpt lat="49.20407925737594" lon="6.067954299183567"><ele>353.6</ele><time>2026-04-19T12:00:30.999Z</time></trkpt><trkpt lat="49.204164890724236" lon="6.0678795386330915"><ele>352.4</ele><time>2026-04-19T12:00:32.999Z</time></trkpt><trkpt lat="49.2042588841192" lon="6.067809024163183"><ele>351.2</ele><time>2026-04-19T12:00:34.999Z</time></trkpt><trkpt lat="49.20432708849306" lon="6.067740744042442"><ele>350.0</ele><time>2026-04-19T12:00:36.999Z</time></trkpt><trkpt lat="49.20441157983079" lon="6.067651832446837"><ele>350.0</ele><time>2026-04-19T12:00:38.999Z</time></trkpt><trkpt lat="49.20447419147523" lon="6.067525762256677"><ele>350.0</ele><time>2026-04-19T12:00:41.999Z</time></trkpt><trkpt lat="49.2045647843519" lon="6.06750009448108"><ele>350.0</ele><time>2026-04-19T12:00:43.999Z</time></trkpt><trkpt lat="49.20463154771306" lon="6.067501540284292"><ele>350.0</ele><time>2026-04-19T12:00:44.999Z</time></trkpt><trkpt lat="49.204700369037965" lon="6.067473661571048"><ele>350.0</ele><time>2026-04-19T12:00:45.999Z</time></trkpt><trkpt lat="49.20478567807591" lon="6.067436070013904"><ele>350.0</ele><time>2026-04-19T12:00:47.999Z</time></trkpt><trkpt lat="49.204851884936176" lon="6.06746687048335"><ele>349.83333333333337</ele><time>2026-04-19T12:00:49.999Z</time></trkpt><trkpt lat="49.20496363741676" lon="6.067486295904046"><ele>349.6666666666667</ele><time>2026-04-19T12:00:51.999Z</time></trkpt><trkpt lat="49.205042360031285" lon="6.067498860028252"><ele>349.5</ele><time>2026-04-19T12:00:52.999Z</time></trkpt><trkpt lat="49.205110915856174" lon="6.0675220201517925"><ele>349.3333333333333</ele><time>2026-04-19T12:00:53.999Z</time></trkpt><trkpt lat="49.205199598771806" lon="6.067568477426316"><ele>349.16666666666663</ele><time>2026-04-19T12:00:54.999Z</time></trkpt><trkpt lat="49.20525635723869" lon="6.067616893318339"><ele>349.0</ele><time>2026-04-19T12:00:55.999Z</time></trkpt><trkpt lat="49.2053604060941" lon="6.0677961170407455"><ele>349.0</ele><time>2026-04-19T12:00:57.999Z</time></trkpt><trkpt lat="49.20542523342279" lon="6.067931510886795"><ele>349.0</ele><time>2026-04-19T12:00:58.999Z</time></trkpt><trkpt lat="49.2054877317359" lon="6.068032960491902"><ele>349.0</ele><time>2026-04-19T12:01:00Z</time></trkpt><trkpt lat="49.20554602648396" lon="6.068100094152849"><ele>349.0</ele><time>2026-04-19T12:01:01Z</time></trkpt><trkpt lat="49.20566212253421" lon="6.068201099276799"><ele>349.0</ele><time>2026-04-19T12:01:03Z</time></trkpt><trkpt lat="49.20572730948347" lon="6.068258308481207"><ele>348.8333333333333</ele><time>2026-04-19T12:01:04Z</time></trkpt><trkpt lat="49.20579344817657" lon="6.068318578380764"><ele>348.66666666666663</ele><time>2026-04-19T12:01:05Z</time></trkpt><trkpt lat="49.205844259096494" lon="6.068379091483442"><ele>348.5</ele><time>2026-04-19T12:01:06Z</time></trkpt><trkpt lat="49.20589175455306" lon="6.06846915996932"><ele>348.3333333333333</ele><time>2026-04-19T12:01:07Z</time></trkpt><trkpt lat="49.205952986077925" lon="6.068560448642025"><ele>348.1666666666667</ele><time>2026-04-19T12:01:08Z</time></trkpt><trkpt lat="49.20601931309189" lon="6.068637941500403"><ele>348.0</ele><time>2026-04-19T12:01:09Z</time></trkpt><trkpt lat="49.20608399774771" lon="6.06870997916806"><ele>348.0</ele><time>2026-04-19T12:01:10Z</time></trkpt><trkpt lat="49.2061702286406" lon="6.068802323768932"><ele>348.0</ele><time>2026-04-19T12:01:12Z</time></trkpt><trkpt lat="49.206272803372165" lon="6.0688984818618685"><ele>348.0</ele><time>2026-04-19T12:01:14Z</time></trkpt><trkpt lat="49.2063458079145" lon="6.068967554776436"><ele>348.0</ele><time>2026-04-19T12:01:16Z</time></trkpt><trkpt lat="49.20641333305176" lon="6.069015350816248"><ele>348.0</ele><time>2026-04-19T12:01:17Z</time></trkpt><trkpt lat="49.20652056538061" lon="6.069111821983653"><ele>348.6666666666667</ele><time>2026-04-19T12:01:19Z</time></trkpt><trkpt lat="49.20658406020778" lon="6.069168501157862"><ele>349.3333333333333</ele><time>2026-04-19T12:01:20Z</time></trkpt><trkpt lat="49.20663781890926" lon="6.069228354910144"><ele>350.0</ele><time>2026-04-19T12:01:21Z</time></trkpt><trkpt lat="49.20669749143965" lon="6.069287318982609"><ele>350.66666666666663</ele><time>2026-04-19T12:01:22Z</time></trkpt><trkpt lat="49.20676427071626" lon="6.06934762564116"><ele>351.3333333333333</ele><time>2026-04-19T12:01:23Z</time></trkpt><trkpt lat="49.20687251309578" lon="6.069446138331446"><ele>352.0</ele><time>2026-04-19T12:01:25Z</time></trkpt><trkpt lat="49.20696771307384" lon="6.069520593884038"><ele>352.0</ele><time>2026-04-19T12:01:27Z</time></trkpt><trkpt lat="49.20707059271043" lon="6.069546840633933"><ele>352.0</ele><time>2026-04-19T12:01:29Z</time></trkpt><trkpt lat="49.20715337558725" lon="6.0695971161971585"><ele>352.0</ele><time>2026-04-19T12:01:31Z</time></trkpt><trkpt lat="49.20722146592542" lon="6.06959350335412"><ele>352.0</ele><time>2026-04-19T12:01:33Z</time></trkpt><trkpt lat="49.207295239330044" lon="6.069541541141341"><ele>352.0</ele><time>2026-04-19T12:01:35Z</time></trkpt><trkpt lat="49.207418982707196" lon="6.069486294627917"><ele>353.0</ele><time>2026-04-19T12:01:37Z</time></trkpt><trkpt lat="49.207530543159606" lon="6.069401431786361"><ele>354.0</ele><time>2026-04-19T12:01:39Z</time></trkpt><trkpt lat="49.207601120571844" lon="6.069345643233972"><ele>355.0</ele><time>2026-04-19T12:01:40Z</time></trkpt><trkpt lat="49.20769855724393" lon="6.0692772725548"><ele>356.0</ele><time>2026-04-19T12:01:42Z</time></trkpt><trkpt lat="49.2077834468716" lon="6.069182603633071"><ele>357.0</ele><time>2026-04-19T12:01:44Z</time></trkpt><trkpt lat="49.207871320647136" lon="6.06905816791393"><ele>357.3333333333333</ele><time>2026-04-19T12:01:46Z</time></trkpt><trkpt lat="49.20794905932951" lon="6.068957029580044"><ele>357.6666666666667</ele><time>2026-04-19T12:01:48Z</time></trkpt><trkpt lat="49.20802203332163" lon="6.068849780055581"><ele>358.0</ele><time>2026-04-19T12:01:50Z</time></trkpt><trkpt lat="49.20806378122051" lon="6.068762792887593"><ele>358.33333333333337</ele><time>2026-04-19T12:01:52Z</time></trkpt><trkpt lat="49.208061191432165" lon="6.068652152430751"><ele>358.6666666666667</ele><time>2026-04-19T12:01:54Z</time></trkpt><trkpt lat="49.20803264973637" lon="6.0685217649600505"><ele>359.0</ele><time>2026-04-19T12:01:56Z</time></trkpt><trkpt lat="49.208015371802006" lon="6.068366450049452"><ele>358.42857142857144</ele><time>2026-04-19T12:01:58Z</time></trkpt><trkpt lat="49.20800729498773" lon="6.068263124257354"><ele>357.8571428571429</ele><time>2026-04-19T12:01:59Z</time></trkpt><trkpt lat="49.207979267068716" lon="6.068166343929668"><ele>357.2857142857143</ele><time>2026-04-19T12:02:00Z</time></trkpt><trkpt lat="49.20795492065676" lon="6.068063967148544"><ele>356.7142857142857</ele><time>2026-04-19T12:02:01Z</time></trkpt><trkpt lat="49.20793856334188" lon="6.067920854290376"><ele>356.14285714285717</ele><time>2026-04-19T12:02:03Z</time></trkpt><trkpt lat="49.20798240302062" lon="6.0678273773390945"><ele>355.57142857142856</ele><time>2026-04-19T12:02:05.999Z</time></trkpt><trkpt lat="49.20805332871942" lon="6.067826304731703"><ele>355.0</ele><time>2026-04-19T12:02:08.999Z</time></trkpt><trkpt lat="49.208111857997494" lon="6.067872913466896"><ele>355.66666666666663</ele><time>2026-04-19T12:02:10.999Z</time></trkpt><trkpt lat="49.208177135446334" lon="6.067894183652268"><ele>356.3333333333333</ele><time>2026-04-19T12:02:13.999Z</time></trkpt><trkpt lat="49.208241058417535" lon="6.06790431227877"><ele>357.0</ele><time>2026-04-19T12:02:17.999Z</time></trkpt><trkpt lat="49.208308182014" lon="6.067970802517231"><ele>357.6666666666667</ele><time>2026-04-19T12:02:20.999Z</time></trkpt><trkpt lat="49.208382061660885" lon="6.068008010383723"><ele>358.33333333333337</ele><time>2026-04-19T12:02:22.999Z</time></trkpt><trkpt lat="49.20845202202019" lon="6.067972396332494"><ele>359.0</ele><time>2026-04-19T12:02:24.999Z</time></trkpt><trkpt lat="49.208535555692954" lon="6.067913699731893"><ele>359.0</ele><time>2026-04-19T12:02:27.999Z</time></trkpt><trkpt lat="49.208625530307785" lon="6.067903116803062"><ele>359.0</ele><time>2026-04-19T12:02:30.999Z</time></trkpt><trkpt lat="49.20870301958047" lon="6.067893207972107"><ele>359.0</ele><time>2026-04-19T12:02:32.999Z</time></trkpt><trkpt lat="49.208796947988056" lon="6.067902553535587"><ele>359.0</ele><time>2026-04-19T12:02:34.999Z</time></trkpt><trkpt lat="49.20886837689564" lon="6.067883844330416"><ele>359.0</ele><time>2026-04-19T12:02:36.999Z</time></trkpt><trkpt lat="49.20895820075427" lon="6.067868005608933"><ele>359.0</ele><time>2026-04-19T12:02:38.999Z</time></trkpt><trkpt lat="49.20906939580382" lon="6.067885587798402"><ele>358.8571428571429</ele><time>2026-04-19T12:02:40.999Z</time></trkpt><trkpt lat="49.20913213263336" lon="6.067916474813676"><ele>358.7142857142857</ele><time>2026-04-19T12:02:42.999Z</time></trkpt><trkpt lat="49.20920568826786" lon="6.067957935388719"><ele>358.57142857142856</ele><time>2026-04-19T12:02:44.999Z</time></trkpt><trkpt lat="49.20926733047424" lon="6.068003230214052"><ele>358.42857142857144</ele><time>2026-04-19T12:02:46.999Z</time></trkpt><trkpt lat="49.20932972370203" lon="6.06803771300794"><ele>358.2857142857143</ele><time>2026-04-19T12:02:48.999Z</time></trkpt><trkpt lat="49.20940451462023" lon="6.068086570938067"><ele>358.14285714285717</ele><time>2026-04-19T12:02:50.999Z</time></trkpt><trkpt lat="49.20947118765245" lon="6.068098473031495"><ele>358.0</ele><time>2026-04-19T12:02:52.999Z</time></trkpt><trkpt lat="49.20956118972642" lon="6.068101053398333"><ele>358.0</ele><time>2026-04-19T12:02:54.999Z</time></trkpt><trkpt lat="49.20963589937594" lon="6.068143281057651"><ele>358.0</ele><time>2026-04-19T12:02:56.999Z</time></trkpt><trkpt lat="49.209718624795904" lon="6.06814216704159"><ele>358.0</ele><time>2026-04-19T12:02:58.999Z</time></trkpt><trkpt lat="49.20979552546508" lon="6.068144028273257"><ele>358.0</ele><time>2026-04-19T12:03:01.999Z</time></trkpt><trkpt lat="49.20981235225926" lon="6.06804282453017"><ele>358.0</ele><time>2026-04-19T12:03:04.999Z</time></trkpt><trkpt lat="49.20980837274294" lon="6.067912425379351"><ele>358.0</ele><time>2026-04-19T12:03:07Z</time></trkpt><trkpt lat="49.20984225889071" lon="6.067777582978049"><ele>358.0</ele><time>2026-04-19T12:03:09Z</time></trkpt><trkpt lat="49.20982613354022" lon="6.067660765509805"><ele>358.0</ele><time>2026-04-19T12:03:11Z</time></trkpt><trkpt lat="49.20978955622176" lon="6.067550887850952"><ele>358.0</ele><time>2026-04-19T12:03:13Z</time></trkpt><trkpt lat="49.20987773921869" lon="6.067448415166198"><ele>358.0</ele><time>2026-04-19T12:03:16Z</time></trkpt><trkpt lat="49.2099465222293" lon="6.067381239945918"><ele>358.0</ele><time>2026-04-19T12:03:18Z</time></trkpt><trkpt lat="49.209974088488" lon="6.067255524163855"><ele>358.0</ele><time>2026-04-19T12:03:20Z</time></trkpt><trkpt lat="49.2100195024943" lon="6.067147411740628"><ele>357.8333333333333</ele><time>2026-04-19T12:03:22Z</time></trkpt><trkpt lat="49.21004574538411" lon="6.0670285972880995"><ele>357.66666666666663</ele><time>2026-04-19T12:03:24Z</time></trkpt><trkpt lat="49.210037747994335" lon="6.066932190067955"><ele>357.5</ele><time>2026-04-19T12:03:25Z</time></trkpt><trkpt lat="49.21005439555088" lon="6.066807988641795"><ele>357.3333333333333</ele><time>2026-04-19T12:03:27Z</time></trkpt><trkpt lat="49.210020959823844" lon="6.066674284154456"><ele>357.1666666666667</ele><time>2026-04-19T12:03:30Z</time></trkpt><trkpt lat="49.21008355367581" lon="6.066566361430252"><ele>357.0</ele><time>2026-04-19T12:03:33Z</time></trkpt><trkpt lat="49.21013919016438" lon="6.066466049853946"><ele>356.8333333333333</ele><time>2026-04-19T12:03:35Z</time></trkpt><trkpt lat="49.21017026341448" lon="6.066352430472144"><ele>356.6666666666667</ele><time>2026-04-19T12:03:37Z</time></trkpt><trkpt lat="49.21021273430937" lon="6.066254293131116"><ele>356.5</ele><time>2026-04-19T12:03:40Z</time></trkpt><trkpt lat="49.21027201351359" lon="6.06621453210507"><ele>356.33333333333337</ele><time>2026-04-19T12:03:42Z</time></trkpt><trkpt lat="49.21033084902687" lon="6.066097116821702"><ele>356.1666666666667</ele><time>2026-04-19T12:03:45Z</time></trkpt><trkpt lat="49.21034268858032" lon="6.065929132351236"><ele>356.0</ele><time>2026-04-19T12:03:47Z</time></trkpt><trkpt lat="49.21033440559192" lon="6.065820856631534"><ele>355.4</ele><time>2026-04-19T12:03:48Z</time></trkpt><trkpt lat="49.21032626427714" lon="6.065647313468739"><ele>354.8</ele><time>2026-04-19T12:03:50Z</time></trkpt><trkpt lat="49.210361601836084" lon="6.065486616061651"><ele>354.2</ele><time>2026-04-19T12:03:52Z</time></trkpt><trkpt lat="49.210414443450766" lon="6.065346773211838"><ele>353.59999999999997</ele><time>2026-04-19T12:03:54Z</time></trkpt><trkpt lat="49.210443956947714" lon="6.065175773197316"><ele>353.0</ele><time>2026-04-19T12:03:56Z</time></trkpt><trkpt lat="49.210471019034586" lon="6.065045039773942"><ele>353.0</ele><time>2026-04-19T12:03:58Z</time></trkpt><trkpt lat="49.21046033342638" lon="6.064941645932943"><ele>353.0</ele><time>2026-04-19T12:04:00Z</time></trkpt><trkpt lat="49.21043516146437" lon="6.064853243662534"><ele>353.0</ele><time>2026-04-19T12:04:03Z</time></trkpt><trkpt lat="49.210397373452984" lon="6.064774356609965"><ele>353.0</ele><time>2026-04-19T12:04:06Z</time></trkpt><trkpt lat="49.21046468382227" lon="6.064768239716789"><ele>353.0</ele><time>2026-04-19T12:04:10Z</time></trkpt><trkpt lat="49.21048167277651" lon="6.064924711118389"><ele>353.0</ele><time>2026-04-19T12:05:14Z</time></trkpt><trkpt lat="49.21043710228361" lon="6.065051805725206"><ele>353.0</ele><time>2026-04-19T12:05:16Z</time></trkpt><trkpt lat="49.210357006332345" lon="6.0651554223767565"><ele>353.0</ele><time>2026-04-19T12:05:18Z</time></trkpt><trkpt lat="49.21025506496883" lon="6.065212591686678"><ele>353.0</ele><time>2026-04-19T12:05:20Z</time></trkpt><trkpt lat="49.21012198351672" lon="6.065272328798796"><ele>353.0</ele><time>2026-04-19T12:05:22Z</time></trkpt><trkpt lat="49.21004125119854" lon="6.065318925947993"><ele>353.0</ele><time>2026-04-19T12:05:24Z</time></trkpt></trkseg></trk></gpx>